<?xml version="1.0" encoding="UTF-8" standalone="no" ?>
<gpx xmlns="http://www.topografix.com/GPX/1/1" xmlns:xsi="http://www.w3.org/2001/XMLSchema-instance" xsi:schemaLocation="http://www.topografix.com/GPX/1/1 http://www.topografix.com/GPX/1/1/gpx.xsd" version="1.1" creator="VisuGPX - https://www.visugpx.com">
  <metadata>
    <name>2014 06 08 Gorniès-Le Roc Blanc </name>
    <desc><![CDATA[Au départ de Gornies, Le Roc Blanc par Les Euzes]]></desc>
  </metadata>
  <trk>
    <name><![CDATA[2014-06-08 16:51:07]]></name>
    <trkseg>
      <trkpt lat="43.89044" lon="3.62553">
        <ele>200.57</ele>
        <time>2014-06-08T08:15:32Z</time>
      </trkpt>
      <trkpt lat="43.89047" lon="3.62585">
        <ele>199.13</ele>
        <time>2014-06-08T08:15:49Z</time>
      </trkpt>
      <trkpt lat="43.89043" lon="3.62615">
        <ele>200.09</ele>
        <time>2014-06-08T08:16:08Z</time>
      </trkpt>
      <trkpt lat="43.89037" lon="3.62629">
        <ele>202.01</ele>
        <time>2014-06-08T08:16:25Z</time>
      </trkpt>
      <trkpt lat="43.89017" lon="3.62627">
        <ele>205.38</ele>
        <time>2014-06-08T08:16:44Z</time>
      </trkpt>
      <trkpt lat="43.88999" lon="3.6263">
        <ele>204.42</ele>
        <time>2014-06-08T08:17:01Z</time>
      </trkpt>
      <trkpt lat="43.88994" lon="3.62634">
        <ele>202.98</ele>
        <time>2014-06-08T08:17:13Z</time>
      </trkpt>
      <trkpt lat="43.88997" lon="3.62633">
        <ele>203.94</ele>
        <time>2014-06-08T08:17:27Z</time>
      </trkpt>
      <trkpt lat="43.88995" lon="3.62635">
        <ele>205.38</ele>
        <time>2014-06-08T08:17:48Z</time>
      </trkpt>
      <trkpt lat="43.88995" lon="3.62634">
        <ele>208.74</ele>
        <time>2014-06-08T08:18:07Z</time>
      </trkpt>
      <trkpt lat="43.88996" lon="3.62633">
        <ele>208.74</ele>
        <time>2014-06-08T08:18:30Z</time>
      </trkpt>
      <trkpt lat="43.89004" lon="3.62634">
        <ele>210.19</ele>
        <time>2014-06-08T08:18:53Z</time>
      </trkpt>
      <trkpt lat="43.89007" lon="3.62636">
        <ele>210.67</ele>
        <time>2014-06-08T08:18:57Z</time>
      </trkpt>
      <trkpt lat="43.89012" lon="3.62637">
        <ele>213.07</ele>
        <time>2014-06-08T08:19:10Z</time>
      </trkpt>
      <trkpt lat="43.89013" lon="3.62636">
        <ele>213.55</ele>
        <time>2014-06-08T08:19:11Z</time>
      </trkpt>
      <trkpt lat="43.89017" lon="3.62638">
        <ele>214.03</ele>
        <time>2014-06-08T08:19:18Z</time>
      </trkpt>
      <trkpt lat="43.89018" lon="3.62645">
        <ele>213.55</ele>
        <time>2014-06-08T08:19:34Z</time>
      </trkpt>
      <trkpt lat="43.89016" lon="3.62658">
        <ele>215.95</ele>
        <time>2014-06-08T08:19:50Z</time>
      </trkpt>
      <trkpt lat="43.89008" lon="3.62661">
        <ele>220.28</ele>
        <time>2014-06-08T08:20:07Z</time>
      </trkpt>
      <trkpt lat="43.89002" lon="3.62665">
        <ele>224.12</ele>
        <time>2014-06-08T08:20:23Z</time>
      </trkpt>
      <trkpt lat="43.89" lon="3.62671">
        <ele>228.45</ele>
        <time>2014-06-08T08:20:36Z</time>
      </trkpt>
      <trkpt lat="43.89002" lon="3.62676">
        <ele>233.74</ele>
        <time>2014-06-08T08:20:49Z</time>
      </trkpt>
      <trkpt lat="43.89001" lon="3.62679">
        <ele>237.58</ele>
        <time>2014-06-08T08:21:02Z</time>
      </trkpt>
      <trkpt lat="43.88999" lon="3.62682">
        <ele>238.54</ele>
        <time>2014-06-08T08:21:15Z</time>
      </trkpt>
      <trkpt lat="43.88993" lon="3.62681">
        <ele>241.91</ele>
        <time>2014-06-08T08:21:26Z</time>
      </trkpt>
      <trkpt lat="43.88993" lon="3.62687">
        <ele>242.87</ele>
        <time>2014-06-08T08:21:37Z</time>
      </trkpt>
      <trkpt lat="43.88989" lon="3.62692">
        <ele>246.23</ele>
        <time>2014-06-08T08:21:52Z</time>
      </trkpt>
      <trkpt lat="43.88986" lon="3.62695">
        <ele>249.6</ele>
        <time>2014-06-08T08:22:05Z</time>
      </trkpt>
      <trkpt lat="43.88987" lon="3.62698">
        <ele>252.48</ele>
        <time>2014-06-08T08:22:20Z</time>
      </trkpt>
      <trkpt lat="43.88987" lon="3.62699">
        <ele>252.48</ele>
        <time>2014-06-08T08:22:38Z</time>
      </trkpt>
      <trkpt lat="43.88992" lon="3.62705">
        <ele>251.52</ele>
        <time>2014-06-08T08:22:50Z</time>
      </trkpt>
      <trkpt lat="43.88991" lon="3.62709">
        <ele>252.48</ele>
        <time>2014-06-08T08:23:03Z</time>
      </trkpt>
      <trkpt lat="43.88992" lon="3.62716">
        <ele>256.33</ele>
        <time>2014-06-08T08:23:18Z</time>
      </trkpt>
      <trkpt lat="43.88991" lon="3.6272">
        <ele>259.69</ele>
        <time>2014-06-08T08:23:32Z</time>
      </trkpt>
      <trkpt lat="43.88993" lon="3.62728">
        <ele>261.14</ele>
        <time>2014-06-08T08:23:48Z</time>
      </trkpt>
      <trkpt lat="43.8899" lon="3.62731">
        <ele>265.46</ele>
        <time>2014-06-08T08:24:00Z</time>
      </trkpt>
      <trkpt lat="43.88989" lon="3.62736">
        <ele>268.83</ele>
        <time>2014-06-08T08:24:12Z</time>
      </trkpt>
      <trkpt lat="43.88991" lon="3.62742">
        <ele>271.71</ele>
        <time>2014-06-08T08:24:28Z</time>
      </trkpt>
      <trkpt lat="43.88982" lon="3.62743">
        <ele>276.04</ele>
        <time>2014-06-08T08:24:47Z</time>
      </trkpt>
      <trkpt lat="43.88976" lon="3.62745">
        <ele>280.84</ele>
        <time>2014-06-08T08:25:01Z</time>
      </trkpt>
      <trkpt lat="43.88968" lon="3.62746">
        <ele>285.17</ele>
        <time>2014-06-08T08:25:15Z</time>
      </trkpt>
      <trkpt lat="43.88959" lon="3.62745">
        <ele>288.53</ele>
        <time>2014-06-08T08:25:29Z</time>
      </trkpt>
      <trkpt lat="43.88949" lon="3.62742">
        <ele>289.49</ele>
        <time>2014-06-08T08:25:41Z</time>
      </trkpt>
      <trkpt lat="43.88944" lon="3.62743">
        <ele>289.97</ele>
        <time>2014-06-08T08:25:48Z</time>
      </trkpt>
      <trkpt lat="43.88936" lon="3.62744">
        <ele>290.46</ele>
        <time>2014-06-08T08:26:04Z</time>
      </trkpt>
      <trkpt lat="43.88926" lon="3.62745">
        <ele>291.9</ele>
        <time>2014-06-08T08:26:19Z</time>
      </trkpt>
      <trkpt lat="43.88921" lon="3.62747">
        <ele>295.74</ele>
        <time>2014-06-08T08:26:34Z</time>
      </trkpt>
      <trkpt lat="43.88915" lon="3.62753">
        <ele>296.7</ele>
        <time>2014-06-08T08:26:47Z</time>
      </trkpt>
      <trkpt lat="43.88912" lon="3.62758">
        <ele>298.63</ele>
        <time>2014-06-08T08:27:02Z</time>
      </trkpt>
      <trkpt lat="43.88904" lon="3.62762">
        <ele>300.07</ele>
        <time>2014-06-08T08:27:17Z</time>
      </trkpt>
      <trkpt lat="43.88899" lon="3.62766">
        <ele>303.91</ele>
        <time>2014-06-08T08:27:31Z</time>
      </trkpt>
      <trkpt lat="43.88891" lon="3.6277">
        <ele>305.84</ele>
        <time>2014-06-08T08:27:45Z</time>
      </trkpt>
      <trkpt lat="43.88882" lon="3.62776">
        <ele>308.24</ele>
        <time>2014-06-08T08:28:00Z</time>
      </trkpt>
      <trkpt lat="43.88878" lon="3.6278">
        <ele>310.16</ele>
        <time>2014-06-08T08:28:14Z</time>
      </trkpt>
      <trkpt lat="43.88871" lon="3.62786">
        <ele>312.09</ele>
        <time>2014-06-08T08:28:28Z</time>
      </trkpt>
      <trkpt lat="43.88864" lon="3.62791">
        <ele>313.53</ele>
        <time>2014-06-08T08:28:41Z</time>
      </trkpt>
      <trkpt lat="43.88858" lon="3.62798">
        <ele>315.93</ele>
        <time>2014-06-08T08:28:57Z</time>
      </trkpt>
      <trkpt lat="43.88852" lon="3.62802">
        <ele>318.81</ele>
        <time>2014-06-08T08:29:12Z</time>
      </trkpt>
      <trkpt lat="43.88843" lon="3.62807">
        <ele>321.22</ele>
        <time>2014-06-08T08:29:28Z</time>
      </trkpt>
      <trkpt lat="43.88834" lon="3.62812">
        <ele>322.18</ele>
        <time>2014-06-08T08:29:42Z</time>
      </trkpt>
      <trkpt lat="43.88825" lon="3.62813">
        <ele>326.99</ele>
        <time>2014-06-08T08:29:59Z</time>
      </trkpt>
      <trkpt lat="43.88823" lon="3.62812">
        <ele>327.47</ele>
        <time>2014-06-08T08:30:01Z</time>
      </trkpt>
      <trkpt lat="43.88819" lon="3.62811">
        <ele>328.43</ele>
        <time>2014-06-08T08:30:05Z</time>
      </trkpt>
      <trkpt lat="43.88805" lon="3.62812">
        <ele>331.79</ele>
        <time>2014-06-08T08:30:21Z</time>
      </trkpt>
      <trkpt lat="43.88795" lon="3.6281">
        <ele>334.68</ele>
        <time>2014-06-08T08:30:34Z</time>
      </trkpt>
      <trkpt lat="43.88791" lon="3.62813">
        <ele>336.6</ele>
        <time>2014-06-08T08:30:46Z</time>
      </trkpt>
      <trkpt lat="43.8879" lon="3.62817">
        <ele>337.56</ele>
        <time>2014-06-08T08:31:00Z</time>
      </trkpt>
      <trkpt lat="43.88795" lon="3.62824">
        <ele>338.52</ele>
        <time>2014-06-08T08:31:15Z</time>
      </trkpt>
      <trkpt lat="43.88788" lon="3.62827">
        <ele>339.96</ele>
        <time>2014-06-08T08:31:26Z</time>
      </trkpt>
      <trkpt lat="43.88778" lon="3.62826">
        <ele>344.29</ele>
        <time>2014-06-08T08:31:39Z</time>
      </trkpt>
      <trkpt lat="43.88769" lon="3.6283">
        <ele>348.62</ele>
        <time>2014-06-08T08:31:54Z</time>
      </trkpt>
      <trkpt lat="43.8876" lon="3.62829">
        <ele>350.54</ele>
        <time>2014-06-08T08:32:06Z</time>
      </trkpt>
      <trkpt lat="43.88747" lon="3.62827">
        <ele>350.54</ele>
        <time>2014-06-08T08:32:19Z</time>
      </trkpt>
      <trkpt lat="43.88746" lon="3.62826">
        <ele>350.54</ele>
        <time>2014-06-08T08:32:20Z</time>
      </trkpt>
      <trkpt lat="43.88743" lon="3.62825">
        <ele>350.54</ele>
        <time>2014-06-08T08:32:23Z</time>
      </trkpt>
      <trkpt lat="43.88729" lon="3.62825">
        <ele>351.5</ele>
        <time>2014-06-08T08:32:37Z</time>
      </trkpt>
      <trkpt lat="43.88718" lon="3.62828">
        <ele>351.98</ele>
        <time>2014-06-08T08:32:50Z</time>
      </trkpt>
      <trkpt lat="43.88709" lon="3.62831">
        <ele>352.94</ele>
        <time>2014-06-08T08:33:03Z</time>
      </trkpt>
      <trkpt lat="43.88692" lon="3.62836">
        <ele>353.42</ele>
        <time>2014-06-08T08:33:20Z</time>
      </trkpt>
      <trkpt lat="43.88676" lon="3.62838">
        <ele>354.38</ele>
        <time>2014-06-08T08:33:37Z</time>
      </trkpt>
      <trkpt lat="43.88654" lon="3.62842">
        <ele>357.27</ele>
        <time>2014-06-08T08:33:58Z</time>
      </trkpt>
      <trkpt lat="43.88637" lon="3.62848">
        <ele>357.75</ele>
        <time>2014-06-08T08:34:13Z</time>
      </trkpt>
      <trkpt lat="43.88624" lon="3.62846">
        <ele>369.76</ele>
        <time>2014-06-08T08:34:26Z</time>
      </trkpt>
      <trkpt lat="43.88614" lon="3.62848">
        <ele>374.57</ele>
        <time>2014-06-08T08:34:38Z</time>
      </trkpt>
      <trkpt lat="43.88602" lon="3.62849">
        <ele>376.01</ele>
        <time>2014-06-08T08:34:52Z</time>
      </trkpt>
      <trkpt lat="43.88594" lon="3.62851">
        <ele>376.49</ele>
        <time>2014-06-08T08:35:01Z</time>
      </trkpt>
      <trkpt lat="43.88591" lon="3.62851">
        <ele>376.97</ele>
        <time>2014-06-08T08:35:05Z</time>
      </trkpt>
      <trkpt lat="43.8858" lon="3.62854">
        <ele>378.42</ele>
        <time>2014-06-08T08:35:23Z</time>
      </trkpt>
      <trkpt lat="43.88568" lon="3.62866">
        <ele>379.38</ele>
        <time>2014-06-08T08:35:41Z</time>
      </trkpt>
      <trkpt lat="43.88558" lon="3.62869">
        <ele>380.34</ele>
        <time>2014-06-08T08:35:49Z</time>
      </trkpt>
      <trkpt lat="43.8854" lon="3.62884">
        <ele>381.3</ele>
        <time>2014-06-08T08:36:11Z</time>
      </trkpt>
      <trkpt lat="43.88529" lon="3.62903">
        <ele>381.3</ele>
        <time>2014-06-08T08:36:34Z</time>
      </trkpt>
      <trkpt lat="43.8852" lon="3.62915">
        <ele>383.7</ele>
        <time>2014-06-08T08:36:53Z</time>
      </trkpt>
      <trkpt lat="43.88514" lon="3.62931">
        <ele>385.63</ele>
        <time>2014-06-08T08:37:17Z</time>
      </trkpt>
      <trkpt lat="43.88498" lon="3.62939">
        <ele>388.03</ele>
        <time>2014-06-08T08:37:41Z</time>
      </trkpt>
      <trkpt lat="43.88485" lon="3.62946">
        <ele>389.47</ele>
        <time>2014-06-08T08:37:58Z</time>
      </trkpt>
      <trkpt lat="43.88486" lon="3.62958">
        <ele>393.8</ele>
        <time>2014-06-08T08:38:18Z</time>
      </trkpt>
      <trkpt lat="43.88488" lon="3.62954">
        <ele>395.72</ele>
        <time>2014-06-08T08:38:41Z</time>
      </trkpt>
      <trkpt lat="43.88486" lon="3.62951">
        <ele>395.72</ele>
        <time>2014-06-08T08:39:10Z</time>
      </trkpt>
      <trkpt lat="43.88484" lon="3.62951">
        <ele>396.68</ele>
        <time>2014-06-08T08:39:34Z</time>
      </trkpt>
      <trkpt lat="43.88486" lon="3.62954">
        <ele>395.72</ele>
        <time>2014-06-08T08:39:55Z</time>
      </trkpt>
      <trkpt lat="43.88479" lon="3.62951">
        <ele>395.24</ele>
        <time>2014-06-08T08:40:13Z</time>
      </trkpt>
      <trkpt lat="43.8846" lon="3.62955">
        <ele>393.8</ele>
        <time>2014-06-08T08:40:31Z</time>
      </trkpt>
      <trkpt lat="43.88443" lon="3.62953">
        <ele>393.32</ele>
        <time>2014-06-08T08:40:54Z</time>
      </trkpt>
      <trkpt lat="43.88423" lon="3.62956">
        <ele>393.8</ele>
        <time>2014-06-08T08:41:13Z</time>
      </trkpt>
      <trkpt lat="43.88411" lon="3.62977">
        <ele>398.6</ele>
        <time>2014-06-08T08:41:37Z</time>
      </trkpt>
      <trkpt lat="43.88404" lon="3.62995">
        <ele>404.37</ele>
        <time>2014-06-08T08:41:58Z</time>
      </trkpt>
      <trkpt lat="43.88397" lon="3.63026">
        <ele>408.7</ele>
        <time>2014-06-08T08:42:17Z</time>
      </trkpt>
      <trkpt lat="43.88395" lon="3.63062">
        <ele>412.54</ele>
        <time>2014-06-08T08:42:40Z</time>
      </trkpt>
      <trkpt lat="43.88398" lon="3.63099">
        <ele>412.54</ele>
        <time>2014-06-08T08:43:01Z</time>
      </trkpt>
      <trkpt lat="43.88393" lon="3.63133">
        <ele>412.06</ele>
        <time>2014-06-08T08:43:19Z</time>
      </trkpt>
      <trkpt lat="43.88384" lon="3.63173">
        <ele>410.62</ele>
        <time>2014-06-08T08:43:44Z</time>
      </trkpt>
      <trkpt lat="43.88379" lon="3.63206">
        <ele>411.1</ele>
        <time>2014-06-08T08:44:05Z</time>
      </trkpt>
      <trkpt lat="43.88371" lon="3.63237">
        <ele>414.47</ele>
        <time>2014-06-08T08:44:25Z</time>
      </trkpt>
      <trkpt lat="43.88352" lon="3.63263">
        <ele>418.31</ele>
        <time>2014-06-08T08:44:47Z</time>
      </trkpt>
      <trkpt lat="43.88326" lon="3.6328">
        <ele>421.68</ele>
        <time>2014-06-08T08:45:10Z</time>
      </trkpt>
      <trkpt lat="43.88315" lon="3.63296">
        <ele>422.64</ele>
        <time>2014-06-08T08:45:28Z</time>
      </trkpt>
      <trkpt lat="43.88336" lon="3.63302">
        <ele>422.16</ele>
        <time>2014-06-08T08:45:45Z</time>
      </trkpt>
      <trkpt lat="43.88353" lon="3.6333">
        <ele>427.44</ele>
        <time>2014-06-08T08:46:12Z</time>
      </trkpt>
      <trkpt lat="43.88344" lon="3.63362">
        <ele>428.4</ele>
        <time>2014-06-08T08:46:35Z</time>
      </trkpt>
      <trkpt lat="43.88332" lon="3.63342">
        <ele>428.89</ele>
        <time>2014-06-08T08:46:53Z</time>
      </trkpt>
      <trkpt lat="43.8831" lon="3.63333">
        <ele>428.89</ele>
        <time>2014-06-08T08:47:13Z</time>
      </trkpt>
      <trkpt lat="43.88291" lon="3.6332">
        <ele>430.81</ele>
        <time>2014-06-08T08:47:35Z</time>
      </trkpt>
      <trkpt lat="43.8827" lon="3.63308">
        <ele>430.81</ele>
        <time>2014-06-08T08:47:56Z</time>
      </trkpt>
      <trkpt lat="43.88248" lon="3.63304">
        <ele>428.4</ele>
        <time>2014-06-08T08:48:17Z</time>
      </trkpt>
      <trkpt lat="43.88215" lon="3.63305">
        <ele>427.44</ele>
        <time>2014-06-08T08:48:43Z</time>
      </trkpt>
      <trkpt lat="43.88191" lon="3.63302">
        <ele>430.81</ele>
        <time>2014-06-08T08:49:03Z</time>
      </trkpt>
      <trkpt lat="43.88168" lon="3.63301">
        <ele>428.89</ele>
        <time>2014-06-08T08:49:23Z</time>
      </trkpt>
      <trkpt lat="43.88145" lon="3.63291">
        <ele>426.96</ele>
        <time>2014-06-08T08:49:44Z</time>
      </trkpt>
      <trkpt lat="43.88114" lon="3.63274">
        <ele>432.25</ele>
        <time>2014-06-08T08:50:06Z</time>
      </trkpt>
      <trkpt lat="43.88093" lon="3.63275">
        <ele>434.17</ele>
        <time>2014-06-08T08:50:27Z</time>
      </trkpt>
      <trkpt lat="43.88074" lon="3.63269">
        <ele>431.29</ele>
        <time>2014-06-08T08:50:50Z</time>
      </trkpt>
      <trkpt lat="43.88048" lon="3.63262">
        <ele>435.61</ele>
        <time>2014-06-08T08:51:14Z</time>
      </trkpt>
      <trkpt lat="43.88026" lon="3.63279">
        <ele>437.54</ele>
        <time>2014-06-08T08:51:36Z</time>
      </trkpt>
      <trkpt lat="43.88005" lon="3.63272">
        <ele>444.27</ele>
        <time>2014-06-08T08:51:59Z</time>
      </trkpt>
      <trkpt lat="43.87989" lon="3.63258">
        <ele>447.63</ele>
        <time>2014-06-08T08:52:20Z</time>
      </trkpt>
      <trkpt lat="43.87963" lon="3.63249">
        <ele>451.96</ele>
        <time>2014-06-08T08:52:43Z</time>
      </trkpt>
      <trkpt lat="43.87944" lon="3.63234">
        <ele>452.44</ele>
        <time>2014-06-08T08:53:05Z</time>
      </trkpt>
      <trkpt lat="43.8793" lon="3.63216">
        <ele>451.48</ele>
        <time>2014-06-08T08:53:28Z</time>
      </trkpt>
      <trkpt lat="43.87909" lon="3.63193">
        <ele>454.36</ele>
        <time>2014-06-08T08:53:48Z</time>
      </trkpt>
      <trkpt lat="43.8789" lon="3.63185">
        <ele>452.92</ele>
        <time>2014-06-08T08:54:08Z</time>
      </trkpt>
      <trkpt lat="43.87868" lon="3.63185">
        <ele>449.07</ele>
        <time>2014-06-08T08:54:30Z</time>
      </trkpt>
      <trkpt lat="43.87848" lon="3.63189">
        <ele>451.48</ele>
        <time>2014-06-08T08:54:54Z</time>
      </trkpt>
      <trkpt lat="43.87824" lon="3.63209">
        <ele>456.28</ele>
        <time>2014-06-08T08:55:17Z</time>
      </trkpt>
      <trkpt lat="43.87804" lon="3.63214">
        <ele>461.57</ele>
        <time>2014-06-08T08:55:39Z</time>
      </trkpt>
      <trkpt lat="43.87784" lon="3.63199">
        <ele>463.01</ele>
        <time>2014-06-08T08:56:01Z</time>
      </trkpt>
      <trkpt lat="43.87767" lon="3.63176">
        <ele>463.49</ele>
        <time>2014-06-08T08:56:26Z</time>
      </trkpt>
      <trkpt lat="43.8774" lon="3.63158">
        <ele>462.05</ele>
        <time>2014-06-08T08:56:52Z</time>
      </trkpt>
      <trkpt lat="43.87718" lon="3.63149">
        <ele>464.93</ele>
        <time>2014-06-08T08:57:12Z</time>
      </trkpt>
      <trkpt lat="43.87691" lon="3.63135">
        <ele>468.3</ele>
        <time>2014-06-08T08:57:34Z</time>
      </trkpt>
      <trkpt lat="43.87668" lon="3.63119">
        <ele>473.59</ele>
        <time>2014-06-08T08:57:57Z</time>
      </trkpt>
      <trkpt lat="43.87649" lon="3.63108">
        <ele>477.43</ele>
        <time>2014-06-08T08:58:17Z</time>
      </trkpt>
      <trkpt lat="43.87631" lon="3.63104">
        <ele>478.87</ele>
        <time>2014-06-08T08:58:41Z</time>
      </trkpt>
      <trkpt lat="43.87609" lon="3.63108">
        <ele>484.64</ele>
        <time>2014-06-08T08:59:07Z</time>
      </trkpt>
      <trkpt lat="43.87596" lon="3.63096">
        <ele>488.01</ele>
        <time>2014-06-08T08:59:30Z</time>
      </trkpt>
      <trkpt lat="43.87579" lon="3.63073">
        <ele>488.97</ele>
        <time>2014-06-08T08:59:50Z</time>
      </trkpt>
      <trkpt lat="43.87571" lon="3.63079">
        <ele>490.89</ele>
        <time>2014-06-08T09:00:09Z</time>
      </trkpt>
      <trkpt lat="43.87551" lon="3.63087">
        <ele>497.62</ele>
        <time>2014-06-08T09:00:34Z</time>
      </trkpt>
      <trkpt lat="43.87538" lon="3.63103">
        <ele>501.95</ele>
        <time>2014-06-08T09:00:57Z</time>
      </trkpt>
      <trkpt lat="43.87521" lon="3.63102">
        <ele>505.31</ele>
        <time>2014-06-08T09:01:17Z</time>
      </trkpt>
      <trkpt lat="43.87502" lon="3.63106">
        <ele>507.71</ele>
        <time>2014-06-08T09:01:39Z</time>
      </trkpt>
      <trkpt lat="43.87484" lon="3.63105">
        <ele>510.6</ele>
        <time>2014-06-08T09:02:00Z</time>
      </trkpt>
      <trkpt lat="43.87472" lon="3.63079">
        <ele>513.48</ele>
        <time>2014-06-08T09:02:23Z</time>
      </trkpt>
      <trkpt lat="43.87457" lon="3.63067">
        <ele>516.37</ele>
        <time>2014-06-08T09:02:49Z</time>
      </trkpt>
      <trkpt lat="43.87437" lon="3.63055">
        <ele>521.65</ele>
        <time>2014-06-08T09:03:11Z</time>
      </trkpt>
      <trkpt lat="43.87421" lon="3.63029">
        <ele>525.02</ele>
        <time>2014-06-08T09:03:40Z</time>
      </trkpt>
      <trkpt lat="43.87407" lon="3.63007">
        <ele>525.02</ele>
        <time>2014-06-08T09:04:04Z</time>
      </trkpt>
      <trkpt lat="43.87395" lon="3.6299">
        <ele>526.94</ele>
        <time>2014-06-08T09:04:26Z</time>
      </trkpt>
      <trkpt lat="43.87379" lon="3.62982">
        <ele>525.5</ele>
        <time>2014-06-08T09:04:48Z</time>
      </trkpt>
      <trkpt lat="43.87366" lon="3.62971">
        <ele>526.94</ele>
        <time>2014-06-08T09:05:10Z</time>
      </trkpt>
      <trkpt lat="43.8735" lon="3.62964">
        <ele>530.3</ele>
        <time>2014-06-08T09:05:32Z</time>
      </trkpt>
      <trkpt lat="43.87337" lon="3.62955">
        <ele>530.79</ele>
        <time>2014-06-08T09:05:59Z</time>
      </trkpt>
      <trkpt lat="43.87325" lon="3.62946">
        <ele>537.51</ele>
        <time>2014-06-08T09:06:20Z</time>
      </trkpt>
      <trkpt lat="43.87309" lon="3.6294">
        <ele>542.32</ele>
        <time>2014-06-08T09:06:45Z</time>
      </trkpt>
      <trkpt lat="43.87292" lon="3.62939">
        <ele>540.88</ele>
        <time>2014-06-08T09:07:08Z</time>
      </trkpt>
      <trkpt lat="43.87279" lon="3.62927">
        <ele>543.28</ele>
        <time>2014-06-08T09:07:28Z</time>
      </trkpt>
      <trkpt lat="43.87261" lon="3.62917">
        <ele>547.61</ele>
        <time>2014-06-08T09:07:53Z</time>
      </trkpt>
      <trkpt lat="43.87243" lon="3.62912">
        <ele>556.26</ele>
        <time>2014-06-08T09:08:16Z</time>
      </trkpt>
      <trkpt lat="43.87227" lon="3.62897">
        <ele>556.74</ele>
        <time>2014-06-08T09:08:38Z</time>
      </trkpt>
      <trkpt lat="43.8721" lon="3.62882">
        <ele>558.18</ele>
        <time>2014-06-08T09:08:59Z</time>
      </trkpt>
      <trkpt lat="43.87195" lon="3.62879">
        <ele>556.74</ele>
        <time>2014-06-08T09:09:20Z</time>
      </trkpt>
      <trkpt lat="43.87179" lon="3.62868">
        <ele>561.07</ele>
        <time>2014-06-08T09:09:46Z</time>
      </trkpt>
      <trkpt lat="43.87163" lon="3.62866">
        <ele>559.62</ele>
        <time>2014-06-08T09:10:09Z</time>
      </trkpt>
      <trkpt lat="43.87146" lon="3.62844">
        <ele>568.28</ele>
        <time>2014-06-08T09:10:34Z</time>
      </trkpt>
      <trkpt lat="43.87135" lon="3.62834">
        <ele>572.6</ele>
        <time>2014-06-08T09:10:55Z</time>
      </trkpt>
      <trkpt lat="43.87125" lon="3.62826">
        <ele>581.73</ele>
        <time>2014-06-08T09:11:19Z</time>
      </trkpt>
      <trkpt lat="43.87109" lon="3.62829">
        <ele>582.22</ele>
        <time>2014-06-08T09:11:41Z</time>
      </trkpt>
      <trkpt lat="43.87097" lon="3.62824">
        <ele>590.87</ele>
        <time>2014-06-08T09:12:04Z</time>
      </trkpt>
      <trkpt lat="43.87088" lon="3.62834">
        <ele>598.56</ele>
        <time>2014-06-08T09:12:24Z</time>
      </trkpt>
      <trkpt lat="43.87077" lon="3.62857">
        <ele>604.33</ele>
        <time>2014-06-08T09:12:49Z</time>
      </trkpt>
      <trkpt lat="43.87066" lon="3.62871">
        <ele>608.17</ele>
        <time>2014-06-08T09:13:12Z</time>
      </trkpt>
      <trkpt lat="43.87058" lon="3.62885">
        <ele>610.09</ele>
        <time>2014-06-08T09:13:35Z</time>
      </trkpt>
      <trkpt lat="43.87047" lon="3.62891">
        <ele>611.54</ele>
        <time>2014-06-08T09:14:02Z</time>
      </trkpt>
      <trkpt lat="43.87037" lon="3.62896">
        <ele>616.34</ele>
        <time>2014-06-08T09:14:25Z</time>
      </trkpt>
      <trkpt lat="43.87024" lon="3.62891">
        <ele>619.71</ele>
        <time>2014-06-08T09:14:52Z</time>
      </trkpt>
      <trkpt lat="43.87016" lon="3.6288">
        <ele>628.36</ele>
        <time>2014-06-08T09:15:14Z</time>
      </trkpt>
      <trkpt lat="43.87006" lon="3.62869">
        <ele>632.68</ele>
        <time>2014-06-08T09:15:42Z</time>
      </trkpt>
      <trkpt lat="43.86995" lon="3.62855">
        <ele>636.53</ele>
        <time>2014-06-08T09:16:04Z</time>
      </trkpt>
      <trkpt lat="43.86988" lon="3.62828">
        <ele>637.97</ele>
        <time>2014-06-08T09:16:28Z</time>
      </trkpt>
      <trkpt lat="43.86971" lon="3.62828">
        <ele>641.34</ele>
        <time>2014-06-08T09:16:53Z</time>
      </trkpt>
      <trkpt lat="43.86953" lon="3.62834">
        <ele>641.82</ele>
        <time>2014-06-08T09:17:20Z</time>
      </trkpt>
      <trkpt lat="43.86943" lon="3.62833">
        <ele>644.7</ele>
        <time>2014-06-08T09:17:42Z</time>
      </trkpt>
      <trkpt lat="43.8693" lon="3.62847">
        <ele>649.99</ele>
        <time>2014-06-08T09:18:04Z</time>
      </trkpt>
      <trkpt lat="43.86922" lon="3.6285">
        <ele>655.76</ele>
        <time>2014-06-08T09:18:27Z</time>
      </trkpt>
      <trkpt lat="43.86911" lon="3.62851">
        <ele>657.2</ele>
        <time>2014-06-08T09:18:48Z</time>
      </trkpt>
      <trkpt lat="43.86894" lon="3.62833">
        <ele>662.49</ele>
        <time>2014-06-08T09:19:15Z</time>
      </trkpt>
      <trkpt lat="43.86882" lon="3.6282">
        <ele>665.85</ele>
        <time>2014-06-08T09:19:44Z</time>
      </trkpt>
      <trkpt lat="43.86874" lon="3.62794">
        <ele>666.81</ele>
        <time>2014-06-08T09:20:08Z</time>
      </trkpt>
      <trkpt lat="43.8686" lon="3.62773">
        <ele>669.22</ele>
        <time>2014-06-08T09:20:34Z</time>
      </trkpt>
      <trkpt lat="43.86847" lon="3.62759">
        <ele>675.94</ele>
        <time>2014-06-08T09:20:58Z</time>
      </trkpt>
      <trkpt lat="43.86826" lon="3.62744">
        <ele>680.75</ele>
        <time>2014-06-08T09:21:27Z</time>
      </trkpt>
      <trkpt lat="43.86811" lon="3.62732">
        <ele>685.56</ele>
        <time>2014-06-08T09:21:52Z</time>
      </trkpt>
      <trkpt lat="43.86801" lon="3.62721">
        <ele>692.29</ele>
        <time>2014-06-08T09:22:17Z</time>
      </trkpt>
      <trkpt lat="43.86782" lon="3.62711">
        <ele>699.02</ele>
        <time>2014-06-08T09:22:48Z</time>
      </trkpt>
      <trkpt lat="43.86769" lon="3.62711">
        <ele>701.9</ele>
        <time>2014-06-08T09:23:17Z</time>
      </trkpt>
      <trkpt lat="43.86757" lon="3.62714">
        <ele>708.63</ele>
        <time>2014-06-08T09:23:42Z</time>
      </trkpt>
      <trkpt lat="43.86742" lon="3.62703">
        <ele>714.88</ele>
        <time>2014-06-08T09:24:10Z</time>
      </trkpt>
      <trkpt lat="43.86726" lon="3.62689">
        <ele>717.28</ele>
        <time>2014-06-08T09:24:34Z</time>
      </trkpt>
      <trkpt lat="43.86721" lon="3.6268">
        <ele>719.2</ele>
        <time>2014-06-08T09:24:55Z</time>
      </trkpt>
      <trkpt lat="43.8672" lon="3.62683">
        <ele>716.8</ele>
        <time>2014-06-08T09:25:21Z</time>
      </trkpt>
      <trkpt lat="43.8672" lon="3.62681">
        <ele>719.68</ele>
        <time>2014-06-08T09:25:39Z</time>
      </trkpt>
      <trkpt lat="43.86722" lon="3.6268">
        <ele>724.01</ele>
        <time>2014-06-08T09:26:04Z</time>
      </trkpt>
      <trkpt lat="43.86723" lon="3.62682">
        <ele>722.09</ele>
        <time>2014-06-08T09:26:26Z</time>
      </trkpt>
      <trkpt lat="43.86721" lon="3.6268">
        <ele>721.13</ele>
        <time>2014-06-08T09:26:53Z</time>
      </trkpt>
      <trkpt lat="43.86723" lon="3.62682">
        <ele>717.76</ele>
        <time>2014-06-08T09:27:26Z</time>
      </trkpt>
      <trkpt lat="43.86722" lon="3.62679">
        <ele>718.72</ele>
        <time>2014-06-08T09:27:53Z</time>
      </trkpt>
      <trkpt lat="43.86725" lon="3.62681">
        <ele>722.57</ele>
        <time>2014-06-08T09:28:29Z</time>
      </trkpt>
      <trkpt lat="43.86725" lon="3.62681">
        <ele>717.76</ele>
        <time>2014-06-08T09:29:09Z</time>
      </trkpt>
      <trkpt lat="43.86722" lon="3.62679">
        <ele>719.68</ele>
        <time>2014-06-08T09:29:35Z</time>
      </trkpt>
      <trkpt lat="43.86712" lon="3.62672">
        <ele>720.16</ele>
        <time>2014-06-08T09:29:57Z</time>
      </trkpt>
      <trkpt lat="43.867" lon="3.6266">
        <ele>721.13</ele>
        <time>2014-06-08T09:30:15Z</time>
      </trkpt>
      <trkpt lat="43.86683" lon="3.62644">
        <ele>724.97</ele>
        <time>2014-06-08T09:30:34Z</time>
      </trkpt>
      <trkpt lat="43.86667" lon="3.62636">
        <ele>726.41</ele>
        <time>2014-06-08T09:30:54Z</time>
      </trkpt>
      <trkpt lat="43.86657" lon="3.62612">
        <ele>725.93</ele>
        <time>2014-06-08T09:31:13Z</time>
      </trkpt>
      <trkpt lat="43.86648" lon="3.62578">
        <ele>727.86</ele>
        <time>2014-06-08T09:31:35Z</time>
      </trkpt>
      <trkpt lat="43.86641" lon="3.62559">
        <ele>730.74</ele>
        <time>2014-06-08T09:31:53Z</time>
      </trkpt>
      <trkpt lat="43.86635" lon="3.62535">
        <ele>730.26</ele>
        <time>2014-06-08T09:32:12Z</time>
      </trkpt>
      <trkpt lat="43.86624" lon="3.62516">
        <ele>732.66</ele>
        <time>2014-06-08T09:32:31Z</time>
      </trkpt>
      <trkpt lat="43.86616" lon="3.62512">
        <ele>734.1</ele>
        <time>2014-06-08T09:32:51Z</time>
      </trkpt>
      <trkpt lat="43.86607" lon="3.62508">
        <ele>735.07</ele>
        <time>2014-06-08T09:33:11Z</time>
      </trkpt>
      <trkpt lat="43.86598" lon="3.62503">
        <ele>736.51</ele>
        <time>2014-06-08T09:33:31Z</time>
      </trkpt>
      <trkpt lat="43.8659" lon="3.62494">
        <ele>739.39</ele>
        <time>2014-06-08T09:33:52Z</time>
      </trkpt>
      <trkpt lat="43.8658" lon="3.62485">
        <ele>740.35</ele>
        <time>2014-06-08T09:34:12Z</time>
      </trkpt>
      <trkpt lat="43.8657" lon="3.62468">
        <ele>746.12</ele>
        <time>2014-06-08T09:34:33Z</time>
      </trkpt>
      <trkpt lat="43.86564" lon="3.62469">
        <ele>750.93</ele>
        <time>2014-06-08T09:34:53Z</time>
      </trkpt>
      <trkpt lat="43.86559" lon="3.62485">
        <ele>753.81</ele>
        <time>2014-06-08T09:35:13Z</time>
      </trkpt>
      <trkpt lat="43.86551" lon="3.62502">
        <ele>757.18</ele>
        <time>2014-06-08T09:35:32Z</time>
      </trkpt>
      <trkpt lat="43.86549" lon="3.62528">
        <ele>760.54</ele>
        <time>2014-06-08T09:35:51Z</time>
      </trkpt>
      <trkpt lat="43.86542" lon="3.62551">
        <ele>761.98</ele>
        <time>2014-06-08T09:36:10Z</time>
      </trkpt>
      <trkpt lat="43.86532" lon="3.62569">
        <ele>763.42</ele>
        <time>2014-06-08T09:36:30Z</time>
      </trkpt>
      <trkpt lat="43.86522" lon="3.62589">
        <ele>766.79</ele>
        <time>2014-06-08T09:36:49Z</time>
      </trkpt>
      <trkpt lat="43.86518" lon="3.62611">
        <ele>770.15</ele>
        <time>2014-06-08T09:37:10Z</time>
      </trkpt>
      <trkpt lat="43.86509" lon="3.62632">
        <ele>776.4</ele>
        <time>2014-06-08T09:37:32Z</time>
      </trkpt>
      <trkpt lat="43.8651" lon="3.62643">
        <ele>782.65</ele>
        <time>2014-06-08T09:37:51Z</time>
      </trkpt>
      <trkpt lat="43.86501" lon="3.62671">
        <ele>783.61</ele>
        <time>2014-06-08T09:38:14Z</time>
      </trkpt>
      <trkpt lat="43.86499" lon="3.62697">
        <ele>790.82</ele>
        <time>2014-06-08T09:38:34Z</time>
      </trkpt>
      <trkpt lat="43.86493" lon="3.62714">
        <ele>794.19</ele>
        <time>2014-06-08T09:38:53Z</time>
      </trkpt>
      <trkpt lat="43.8648" lon="3.62723">
        <ele>796.59</ele>
        <time>2014-06-08T09:39:11Z</time>
      </trkpt>
      <trkpt lat="43.86469" lon="3.62737">
        <ele>799.95</ele>
        <time>2014-06-08T09:39:31Z</time>
      </trkpt>
      <trkpt lat="43.86462" lon="3.62748">
        <ele>804.28</ele>
        <time>2014-06-08T09:39:48Z</time>
      </trkpt>
      <trkpt lat="43.86462" lon="3.62768">
        <ele>806.68</ele>
        <time>2014-06-08T09:40:03Z</time>
      </trkpt>
      <trkpt lat="43.86463" lon="3.62788">
        <ele>808.13</ele>
        <time>2014-06-08T09:40:19Z</time>
      </trkpt>
      <trkpt lat="43.86462" lon="3.62806">
        <ele>810.53</ele>
        <time>2014-06-08T09:40:36Z</time>
      </trkpt>
      <trkpt lat="43.86455" lon="3.62825">
        <ele>812.45</ele>
        <time>2014-06-08T09:40:53Z</time>
      </trkpt>
      <trkpt lat="43.86441" lon="3.62835">
        <ele>814.37</ele>
        <time>2014-06-08T09:41:11Z</time>
      </trkpt>
      <trkpt lat="43.86428" lon="3.62845">
        <ele>816.3</ele>
        <time>2014-06-08T09:41:27Z</time>
      </trkpt>
      <trkpt lat="43.86412" lon="3.62856">
        <ele>817.74</ele>
        <time>2014-06-08T09:41:45Z</time>
      </trkpt>
      <trkpt lat="43.86414" lon="3.62876">
        <ele>818.7</ele>
        <time>2014-06-08T09:42:02Z</time>
      </trkpt>
      <trkpt lat="43.86424" lon="3.62899">
        <ele>822.06</ele>
        <time>2014-06-08T09:42:20Z</time>
      </trkpt>
      <trkpt lat="43.86434" lon="3.62916">
        <ele>824.95</ele>
        <time>2014-06-08T09:42:35Z</time>
      </trkpt>
      <trkpt lat="43.86442" lon="3.62933">
        <ele>826.39</ele>
        <time>2014-06-08T09:42:50Z</time>
      </trkpt>
      <trkpt lat="43.86447" lon="3.62952">
        <ele>827.35</ele>
        <time>2014-06-08T09:43:04Z</time>
      </trkpt>
      <trkpt lat="43.86458" lon="3.62971">
        <ele>830.24</ele>
        <time>2014-06-08T09:43:20Z</time>
      </trkpt>
      <trkpt lat="43.86461" lon="3.6299">
        <ele>832.16</ele>
        <time>2014-06-08T09:43:36Z</time>
      </trkpt>
      <trkpt lat="43.86463" lon="3.63005">
        <ele>834.08</ele>
        <time>2014-06-08T09:43:51Z</time>
      </trkpt>
      <trkpt lat="43.86467" lon="3.63021">
        <ele>836.48</ele>
        <time>2014-06-08T09:44:06Z</time>
      </trkpt>
      <trkpt lat="43.86471" lon="3.63034">
        <ele>836.96</ele>
        <time>2014-06-08T09:44:20Z</time>
      </trkpt>
      <trkpt lat="43.8648" lon="3.63048">
        <ele>838.41</ele>
        <time>2014-06-08T09:44:38Z</time>
      </trkpt>
      <trkpt lat="43.86491" lon="3.63057">
        <ele>843.21</ele>
        <time>2014-06-08T09:44:57Z</time>
      </trkpt>
      <trkpt lat="43.86499" lon="3.63071">
        <ele>846.1</ele>
        <time>2014-06-08T09:45:13Z</time>
      </trkpt>
      <trkpt lat="43.86501" lon="3.63086">
        <ele>846.1</ele>
        <time>2014-06-08T09:45:27Z</time>
      </trkpt>
      <trkpt lat="43.86509" lon="3.63104">
        <ele>849.94</ele>
        <time>2014-06-08T09:45:44Z</time>
      </trkpt>
      <trkpt lat="43.86509" lon="3.63114">
        <ele>849.94</ele>
        <time>2014-06-08T09:45:59Z</time>
      </trkpt>
      <trkpt lat="43.86508" lon="3.63129">
        <ele>852.35</ele>
        <time>2014-06-08T09:46:16Z</time>
      </trkpt>
      <trkpt lat="43.86512" lon="3.63136">
        <ele>853.79</ele>
        <time>2014-06-08T09:46:25Z</time>
      </trkpt>
      <trkpt lat="43.86521" lon="3.63143">
        <ele>855.23</ele>
        <time>2014-06-08T09:46:39Z</time>
      </trkpt>
      <trkpt lat="43.8653" lon="3.63153">
        <ele>858.59</ele>
        <time>2014-06-08T09:46:55Z</time>
      </trkpt>
      <trkpt lat="43.86542" lon="3.63167">
        <ele>862.92</ele>
        <time>2014-06-08T09:47:11Z</time>
      </trkpt>
      <trkpt lat="43.86547" lon="3.6318">
        <ele>865.32</ele>
        <time>2014-06-08T09:47:26Z</time>
      </trkpt>
      <trkpt lat="43.86549" lon="3.63194">
        <ele>865.8</ele>
        <time>2014-06-08T09:47:41Z</time>
      </trkpt>
      <trkpt lat="43.86554" lon="3.63207">
        <ele>867.73</ele>
        <time>2014-06-08T09:47:59Z</time>
      </trkpt>
      <trkpt lat="43.86556" lon="3.63223">
        <ele>871.09</ele>
        <time>2014-06-08T09:48:19Z</time>
      </trkpt>
      <trkpt lat="43.86564" lon="3.6323">
        <ele>873.01</ele>
        <time>2014-06-08T09:48:34Z</time>
      </trkpt>
      <trkpt lat="43.86567" lon="3.63232">
        <ele>873.5</ele>
        <time>2014-06-08T09:48:38Z</time>
      </trkpt>
      <trkpt lat="43.86577" lon="3.63244">
        <ele>873.5</ele>
        <time>2014-06-08T09:48:52Z</time>
      </trkpt>
      <trkpt lat="43.86585" lon="3.63254">
        <ele>874.94</ele>
        <time>2014-06-08T09:49:08Z</time>
      </trkpt>
      <trkpt lat="43.86596" lon="3.63264">
        <ele>875.9</ele>
        <time>2014-06-08T09:49:23Z</time>
      </trkpt>
      <trkpt lat="43.86604" lon="3.63274">
        <ele>875.42</ele>
        <time>2014-06-08T09:49:36Z</time>
      </trkpt>
      <trkpt lat="43.86615" lon="3.63284">
        <ele>875.9</ele>
        <time>2014-06-08T09:49:50Z</time>
      </trkpt>
      <trkpt lat="43.86622" lon="3.63293">
        <ele>876.86</ele>
        <time>2014-06-08T09:50:03Z</time>
      </trkpt>
      <trkpt lat="43.86628" lon="3.63301">
        <ele>877.34</ele>
        <time>2014-06-08T09:50:11Z</time>
      </trkpt>
      <trkpt lat="43.8663" lon="3.63306">
        <ele>877.34</ele>
        <time>2014-06-08T09:50:15Z</time>
      </trkpt>
      <trkpt lat="43.86643" lon="3.63327">
        <ele>878.3</ele>
        <time>2014-06-08T09:50:33Z</time>
      </trkpt>
      <trkpt lat="43.86654" lon="3.63341">
        <ele>879.74</ele>
        <time>2014-06-08T09:50:49Z</time>
      </trkpt>
      <trkpt lat="43.86662" lon="3.63353">
        <ele>880.71</ele>
        <time>2014-06-08T09:51:00Z</time>
      </trkpt>
      <trkpt lat="43.86671" lon="3.63369">
        <ele>882.15</ele>
        <time>2014-06-08T09:51:15Z</time>
      </trkpt>
      <trkpt lat="43.86675" lon="3.63376">
        <ele>883.11</ele>
        <time>2014-06-08T09:51:21Z</time>
      </trkpt>
      <trkpt lat="43.86686" lon="3.63392">
        <ele>885.03</ele>
        <time>2014-06-08T09:51:37Z</time>
      </trkpt>
      <trkpt lat="43.86697" lon="3.63407">
        <ele>885.03</ele>
        <time>2014-06-08T09:51:53Z</time>
      </trkpt>
      <trkpt lat="43.86706" lon="3.63418">
        <ele>885.99</ele>
        <time>2014-06-08T09:52:07Z</time>
      </trkpt>
      <trkpt lat="43.8671" lon="3.63428">
        <ele>886.47</ele>
        <time>2014-06-08T09:52:22Z</time>
      </trkpt>
      <trkpt lat="43.86722" lon="3.6344">
        <ele>885.99</ele>
        <time>2014-06-08T09:52:38Z</time>
      </trkpt>
      <trkpt lat="43.86732" lon="3.63452">
        <ele>885.03</ele>
        <time>2014-06-08T09:52:53Z</time>
      </trkpt>
      <trkpt lat="43.86743" lon="3.63464">
        <ele>886.95</ele>
        <time>2014-06-08T09:53:08Z</time>
      </trkpt>
      <trkpt lat="43.86754" lon="3.63474">
        <ele>889.84</ele>
        <time>2014-06-08T09:53:23Z</time>
      </trkpt>
      <trkpt lat="43.8676" lon="3.63484">
        <ele>891.28</ele>
        <time>2014-06-08T09:53:38Z</time>
      </trkpt>
      <trkpt lat="43.86766" lon="3.63493">
        <ele>893.2</ele>
        <time>2014-06-08T09:53:51Z</time>
      </trkpt>
      <trkpt lat="43.86772" lon="3.63511">
        <ele>893.2</ele>
        <time>2014-06-08T09:54:04Z</time>
      </trkpt>
      <trkpt lat="43.86776" lon="3.6352">
        <ele>892.24</ele>
        <time>2014-06-08T09:54:13Z</time>
      </trkpt>
      <trkpt lat="43.86785" lon="3.63534">
        <ele>891.28</ele>
        <time>2014-06-08T09:54:28Z</time>
      </trkpt>
      <trkpt lat="43.86789" lon="3.6355">
        <ele>889.84</ele>
        <time>2014-06-08T09:54:44Z</time>
      </trkpt>
      <trkpt lat="43.86794" lon="3.63573">
        <ele>890.32</ele>
        <time>2014-06-08T09:55:02Z</time>
      </trkpt>
      <trkpt lat="43.86794" lon="3.63589">
        <ele>893.2</ele>
        <time>2014-06-08T09:55:21Z</time>
      </trkpt>
      <trkpt lat="43.86793" lon="3.63594">
        <ele>896.09</ele>
        <time>2014-06-08T09:55:38Z</time>
      </trkpt>
      <trkpt lat="43.86786" lon="3.6361">
        <ele>901.37</ele>
        <time>2014-06-08T09:55:57Z</time>
      </trkpt>
      <trkpt lat="43.8678" lon="3.63613">
        <ele>903.78</ele>
        <time>2014-06-08T09:56:07Z</time>
      </trkpt>
      <trkpt lat="43.86764" lon="3.63624">
        <ele>905.22</ele>
        <time>2014-06-08T09:56:24Z</time>
      </trkpt>
      <trkpt lat="43.86763" lon="3.63635">
        <ele>907.62</ele>
        <time>2014-06-08T09:56:42Z</time>
      </trkpt>
      <trkpt lat="43.86771" lon="3.63645">
        <ele>910.03</ele>
        <time>2014-06-08T09:56:58Z</time>
      </trkpt>
      <trkpt lat="43.86778" lon="3.63655">
        <ele>912.91</ele>
        <time>2014-06-08T09:57:12Z</time>
      </trkpt>
      <trkpt lat="43.86785" lon="3.63652">
        <ele>915.31</ele>
        <time>2014-06-08T09:57:27Z</time>
      </trkpt>
      <trkpt lat="43.86784" lon="3.63653">
        <ele>916.75</ele>
        <time>2014-06-08T09:57:49Z</time>
      </trkpt>
      <trkpt lat="43.86786" lon="3.63655">
        <ele>918.2</ele>
        <time>2014-06-08T09:58:10Z</time>
      </trkpt>
      <trkpt lat="43.86783" lon="3.63662">
        <ele>917.72</ele>
        <time>2014-06-08T09:58:27Z</time>
      </trkpt>
      <trkpt lat="43.86786" lon="3.63662">
        <ele>916.75</ele>
        <time>2014-06-08T09:58:47Z</time>
      </trkpt>
      <trkpt lat="43.86785" lon="3.63662">
        <ele>918.68</ele>
        <time>2014-06-08T09:59:15Z</time>
      </trkpt>
      <trkpt lat="43.86784" lon="3.6366">
        <ele>919.16</ele>
        <time>2014-06-08T09:59:44Z</time>
      </trkpt>
      <trkpt lat="43.86783" lon="3.63657">
        <ele>920.12</ele>
        <time>2014-06-08T10:00:10Z</time>
      </trkpt>
      <trkpt lat="43.86783" lon="3.63657">
        <ele>919.64</ele>
        <time>2014-06-08T10:00:28Z</time>
      </trkpt>
      <trkpt lat="43.86784" lon="3.63657">
        <ele>918.68</ele>
        <time>2014-06-08T10:00:51Z</time>
      </trkpt>
      <trkpt lat="43.86784" lon="3.63656">
        <ele>918.2</ele>
        <time>2014-06-08T10:01:14Z</time>
      </trkpt>
      <trkpt lat="43.86783" lon="3.63657">
        <ele>919.16</ele>
        <time>2014-06-08T10:01:31Z</time>
      </trkpt>
      <trkpt lat="43.86782" lon="3.63659">
        <ele>921.56</ele>
        <time>2014-06-08T10:01:44Z</time>
      </trkpt>
      <trkpt lat="43.86784" lon="3.63659">
        <ele>920.12</ele>
        <time>2014-06-08T10:02:09Z</time>
      </trkpt>
      <trkpt lat="43.86784" lon="3.63659">
        <ele>916.75</ele>
        <time>2014-06-08T10:02:34Z</time>
      </trkpt>
      <trkpt lat="43.86783" lon="3.63658">
        <ele>914.35</ele>
        <time>2014-06-08T10:03:13Z</time>
      </trkpt>
      <trkpt lat="43.86783" lon="3.63659">
        <ele>914.35</ele>
        <time>2014-06-08T10:03:34Z</time>
      </trkpt>
      <trkpt lat="43.86783" lon="3.63659">
        <ele>914.83</ele>
        <time>2014-06-08T10:03:56Z</time>
      </trkpt>
      <trkpt lat="43.86783" lon="3.63659">
        <ele>914.35</ele>
        <time>2014-06-08T10:04:21Z</time>
      </trkpt>
      <trkpt lat="43.86783" lon="3.6366">
        <ele>916.27</ele>
        <time>2014-06-08T10:04:39Z</time>
      </trkpt>
      <trkpt lat="43.86783" lon="3.63659">
        <ele>915.79</ele>
        <time>2014-06-08T10:05:12Z</time>
      </trkpt>
      <trkpt lat="43.86783" lon="3.63661">
        <ele>916.75</ele>
        <time>2014-06-08T10:05:41Z</time>
      </trkpt>
      <trkpt lat="43.86784" lon="3.63661">
        <ele>916.75</ele>
        <time>2014-06-08T10:06:11Z</time>
      </trkpt>
      <trkpt lat="43.86784" lon="3.63661">
        <ele>916.75</ele>
        <time>2014-06-08T10:06:12Z</time>
      </trkpt>
      <trkpt lat="43.86787" lon="3.63659">
        <ele>916.27</ele>
        <time>2014-06-08T10:06:16Z</time>
      </trkpt>
      <trkpt lat="43.86802" lon="3.63666">
        <ele>915.79</ele>
        <time>2014-06-08T10:06:33Z</time>
      </trkpt>
      <trkpt lat="43.86803" lon="3.63669">
        <ele>913.87</ele>
        <time>2014-06-08T10:06:51Z</time>
      </trkpt>
      <trkpt lat="43.86807" lon="3.6367">
        <ele>913.39</ele>
        <time>2014-06-08T10:07:14Z</time>
      </trkpt>
      <trkpt lat="43.86798" lon="3.63654">
        <ele>915.31</ele>
        <time>2014-06-08T10:07:32Z</time>
      </trkpt>
      <trkpt lat="43.86794" lon="3.63644">
        <ele>913.87</ele>
        <time>2014-06-08T10:07:44Z</time>
      </trkpt>
      <trkpt lat="43.868" lon="3.63632">
        <ele>910.99</ele>
        <time>2014-06-08T10:08:03Z</time>
      </trkpt>
      <trkpt lat="43.86799" lon="3.63633">
        <ele>910.51</ele>
        <time>2014-06-08T10:08:34Z</time>
      </trkpt>
      <trkpt lat="43.86803" lon="3.63634">
        <ele>911.95</ele>
        <time>2014-06-08T10:09:09Z</time>
      </trkpt>
      <trkpt lat="43.86798" lon="3.63639">
        <ele>913.39</ele>
        <time>2014-06-08T10:09:17Z</time>
      </trkpt>
      <trkpt lat="43.86788" lon="3.63647">
        <ele>914.83</ele>
        <time>2014-06-08T10:09:33Z</time>
      </trkpt>
      <trkpt lat="43.86783" lon="3.63658">
        <ele>915.31</ele>
        <time>2014-06-08T10:09:50Z</time>
      </trkpt>
      <trkpt lat="43.86783" lon="3.63658">
        <ele>915.31</ele>
        <time>2014-06-08T10:10:11Z</time>
      </trkpt>
      <trkpt lat="43.86786" lon="3.6367">
        <ele>915.79</ele>
        <time>2014-06-08T10:10:29Z</time>
      </trkpt>
      <trkpt lat="43.86786" lon="3.63674">
        <ele>915.79</ele>
        <time>2014-06-08T10:10:31Z</time>
      </trkpt>
      <trkpt lat="43.86783" lon="3.63714">
        <ele>915.31</ele>
        <time>2014-06-08T10:10:53Z</time>
      </trkpt>
      <trkpt lat="43.86781" lon="3.63751">
        <ele>910.03</ele>
        <time>2014-06-08T10:11:15Z</time>
      </trkpt>
      <trkpt lat="43.86782" lon="3.63794">
        <ele>903.78</ele>
        <time>2014-06-08T10:11:38Z</time>
      </trkpt>
      <trkpt lat="43.86787" lon="3.63811">
        <ele>901.85</ele>
        <time>2014-06-08T10:11:48Z</time>
      </trkpt>
      <trkpt lat="43.86797" lon="3.63841">
        <ele>898.49</ele>
        <time>2014-06-08T10:12:06Z</time>
      </trkpt>
      <trkpt lat="43.86808" lon="3.63865">
        <ele>896.09</ele>
        <time>2014-06-08T10:12:22Z</time>
      </trkpt>
      <trkpt lat="43.8682" lon="3.63881">
        <ele>893.2</ele>
        <time>2014-06-08T10:12:39Z</time>
      </trkpt>
      <trkpt lat="43.86833" lon="3.63907">
        <ele>892.24</ele>
        <time>2014-06-08T10:12:56Z</time>
      </trkpt>
      <trkpt lat="43.86846" lon="3.63926">
        <ele>893.2</ele>
        <time>2014-06-08T10:13:11Z</time>
      </trkpt>
      <trkpt lat="43.86861" lon="3.63945">
        <ele>894.64</ele>
        <time>2014-06-08T10:13:28Z</time>
      </trkpt>
      <trkpt lat="43.8688" lon="3.63962">
        <ele>895.61</ele>
        <time>2014-06-08T10:13:46Z</time>
      </trkpt>
      <trkpt lat="43.86903" lon="3.63984">
        <ele>894.64</ele>
        <time>2014-06-08T10:14:08Z</time>
      </trkpt>
      <trkpt lat="43.86918" lon="3.64006">
        <ele>895.12</ele>
        <time>2014-06-08T10:14:26Z</time>
      </trkpt>
      <trkpt lat="43.86936" lon="3.6403">
        <ele>896.09</ele>
        <time>2014-06-08T10:14:45Z</time>
      </trkpt>
      <trkpt lat="43.86942" lon="3.6405">
        <ele>896.57</ele>
        <time>2014-06-08T10:14:59Z</time>
      </trkpt>
      <trkpt lat="43.86953" lon="3.64076">
        <ele>899.45</ele>
        <time>2014-06-08T10:15:17Z</time>
      </trkpt>
      <trkpt lat="43.86965" lon="3.64093">
        <ele>901.85</ele>
        <time>2014-06-08T10:15:33Z</time>
      </trkpt>
      <trkpt lat="43.86978" lon="3.64115">
        <ele>902.33</ele>
        <time>2014-06-08T10:15:51Z</time>
      </trkpt>
      <trkpt lat="43.86988" lon="3.64133">
        <ele>904.74</ele>
        <time>2014-06-08T10:16:07Z</time>
      </trkpt>
      <trkpt lat="43.86998" lon="3.64149">
        <ele>905.22</ele>
        <time>2014-06-08T10:16:21Z</time>
      </trkpt>
      <trkpt lat="43.87012" lon="3.64174">
        <ele>906.66</ele>
        <time>2014-06-08T10:16:39Z</time>
      </trkpt>
      <trkpt lat="43.87027" lon="3.64196">
        <ele>909.54</ele>
        <time>2014-06-08T10:16:58Z</time>
      </trkpt>
      <trkpt lat="43.87043" lon="3.64214">
        <ele>912.91</ele>
        <time>2014-06-08T10:17:15Z</time>
      </trkpt>
      <trkpt lat="43.87058" lon="3.64232">
        <ele>915.79</ele>
        <time>2014-06-08T10:17:33Z</time>
      </trkpt>
      <trkpt lat="43.87077" lon="3.64251">
        <ele>919.16</ele>
        <time>2014-06-08T10:17:55Z</time>
      </trkpt>
      <trkpt lat="43.87093" lon="3.64272">
        <ele>919.64</ele>
        <time>2014-06-08T10:18:16Z</time>
      </trkpt>
      <trkpt lat="43.87102" lon="3.64294">
        <ele>920.6</ele>
        <time>2014-06-08T10:18:34Z</time>
      </trkpt>
      <trkpt lat="43.87111" lon="3.64314">
        <ele>921.56</ele>
        <time>2014-06-08T10:18:50Z</time>
      </trkpt>
      <trkpt lat="43.87127" lon="3.64318">
        <ele>921.56</ele>
        <time>2014-06-08T10:19:08Z</time>
      </trkpt>
      <trkpt lat="43.87132" lon="3.64326">
        <ele>923.96</ele>
        <time>2014-06-08T10:19:28Z</time>
      </trkpt>
      <trkpt lat="43.87133" lon="3.64341">
        <ele>923.48</ele>
        <time>2014-06-08T10:19:44Z</time>
      </trkpt>
      <trkpt lat="43.87132" lon="3.64348">
        <ele>923.48</ele>
        <time>2014-06-08T10:19:48Z</time>
      </trkpt>
      <trkpt lat="43.87133" lon="3.64376">
        <ele>919.64</ele>
        <time>2014-06-08T10:20:07Z</time>
      </trkpt>
      <trkpt lat="43.87141" lon="3.644">
        <ele>915.31</ele>
        <time>2014-06-08T10:20:23Z</time>
      </trkpt>
      <trkpt lat="43.87146" lon="3.64429">
        <ele>913.39</ele>
        <time>2014-06-08T10:20:41Z</time>
      </trkpt>
      <trkpt lat="43.87149" lon="3.64442">
        <ele>911.95</ele>
        <time>2014-06-08T10:20:50Z</time>
      </trkpt>
      <trkpt lat="43.87156" lon="3.64464">
        <ele>909.54</ele>
        <time>2014-06-08T10:21:04Z</time>
      </trkpt>
      <trkpt lat="43.87157" lon="3.6449">
        <ele>908.58</ele>
        <time>2014-06-08T10:21:18Z</time>
      </trkpt>
      <trkpt lat="43.87164" lon="3.64518">
        <ele>906.66</ele>
        <time>2014-06-08T10:21:34Z</time>
      </trkpt>
      <trkpt lat="43.87173" lon="3.64537">
        <ele>903.78</ele>
        <time>2014-06-08T10:21:49Z</time>
      </trkpt>
      <trkpt lat="43.87182" lon="3.64554">
        <ele>899.93</ele>
        <time>2014-06-08T10:22:09Z</time>
      </trkpt>
      <trkpt lat="43.87182" lon="3.64556">
        <ele>898.97</ele>
        <time>2014-06-08T10:22:28Z</time>
      </trkpt>
      <trkpt lat="43.87181" lon="3.64555">
        <ele>893.2</ele>
        <time>2014-06-08T10:22:49Z</time>
      </trkpt>
      <trkpt lat="43.87183" lon="3.64555">
        <ele>890.8</ele>
        <time>2014-06-08T10:23:14Z</time>
      </trkpt>
      <trkpt lat="43.87185" lon="3.64554">
        <ele>892.72</ele>
        <time>2014-06-08T10:23:36Z</time>
      </trkpt>
      <trkpt lat="43.87182" lon="3.64556">
        <ele>891.76</ele>
        <time>2014-06-08T10:23:56Z</time>
      </trkpt>
      <trkpt lat="43.87182" lon="3.64552">
        <ele>893.2</ele>
        <time>2014-06-08T10:24:25Z</time>
      </trkpt>
      <trkpt lat="43.87181" lon="3.64555">
        <ele>894.64</ele>
        <time>2014-06-08T10:24:56Z</time>
      </trkpt>
      <trkpt lat="43.8718" lon="3.64555">
        <ele>894.16</ele>
        <time>2014-06-08T10:25:27Z</time>
      </trkpt>
      <trkpt lat="43.87184" lon="3.64549">
        <ele>893.68</ele>
        <time>2014-06-08T10:25:58Z</time>
      </trkpt>
      <trkpt lat="43.87183" lon="3.64555">
        <ele>896.57</ele>
        <time>2014-06-08T10:26:32Z</time>
      </trkpt>
      <trkpt lat="43.87185" lon="3.64556">
        <ele>898.01</ele>
        <time>2014-06-08T10:27:01Z</time>
      </trkpt>
      <trkpt lat="43.87185" lon="3.64553">
        <ele>898.49</ele>
        <time>2014-06-08T10:27:35Z</time>
      </trkpt>
      <trkpt lat="43.87183" lon="3.64553">
        <ele>899.45</ele>
        <time>2014-06-08T10:28:07Z</time>
      </trkpt>
      <trkpt lat="43.87177" lon="3.64555">
        <ele>896.09</ele>
        <time>2014-06-08T10:28:40Z</time>
      </trkpt>
      <trkpt lat="43.87184" lon="3.64553">
        <ele>897.05</ele>
        <time>2014-06-08T10:29:08Z</time>
      </trkpt>
      <trkpt lat="43.87183" lon="3.64551">
        <ele>898.01</ele>
        <time>2014-06-08T10:29:40Z</time>
      </trkpt>
      <trkpt lat="43.87185" lon="3.6455">
        <ele>900.41</ele>
        <time>2014-06-08T10:30:15Z</time>
      </trkpt>
      <trkpt lat="43.87184" lon="3.64553">
        <ele>900.41</ele>
        <time>2014-06-08T10:30:50Z</time>
      </trkpt>
      <trkpt lat="43.8718" lon="3.64554">
        <ele>899.45</ele>
        <time>2014-06-08T10:31:28Z</time>
      </trkpt>
      <trkpt lat="43.87181" lon="3.64557">
        <ele>900.41</ele>
        <time>2014-06-08T10:32:03Z</time>
      </trkpt>
      <trkpt lat="43.8718" lon="3.64555">
        <ele>899.45</ele>
        <time>2014-06-08T10:32:41Z</time>
      </trkpt>
      <trkpt lat="43.87182" lon="3.64558">
        <ele>904.26</ele>
        <time>2014-06-08T10:33:13Z</time>
      </trkpt>
      <trkpt lat="43.87184" lon="3.64555">
        <ele>901.85</ele>
        <time>2014-06-08T10:33:39Z</time>
      </trkpt>
      <trkpt lat="43.87184" lon="3.64555">
        <ele>900.89</ele>
        <time>2014-06-08T10:34:16Z</time>
      </trkpt>
      <trkpt lat="43.87184" lon="3.64554">
        <ele>900.41</ele>
        <time>2014-06-08T10:34:45Z</time>
      </trkpt>
      <trkpt lat="43.87181" lon="3.64553">
        <ele>899.45</ele>
        <time>2014-06-08T10:35:18Z</time>
      </trkpt>
      <trkpt lat="43.87182" lon="3.64552">
        <ele>898.01</ele>
        <time>2014-06-08T10:35:49Z</time>
      </trkpt>
      <trkpt lat="43.87186" lon="3.64555">
        <ele>903.78</ele>
        <time>2014-06-08T10:36:23Z</time>
      </trkpt>
      <trkpt lat="43.87184" lon="3.64555">
        <ele>903.78</ele>
        <time>2014-06-08T10:36:55Z</time>
      </trkpt>
      <trkpt lat="43.87185" lon="3.64553">
        <ele>900.41</ele>
        <time>2014-06-08T10:37:21Z</time>
      </trkpt>
      <trkpt lat="43.87187" lon="3.64552">
        <ele>902.82</ele>
        <time>2014-06-08T10:37:47Z</time>
      </trkpt>
      <trkpt lat="43.87186" lon="3.64552">
        <ele>904.74</ele>
        <time>2014-06-08T10:38:14Z</time>
      </trkpt>
      <trkpt lat="43.87189" lon="3.64552">
        <ele>906.66</ele>
        <time>2014-06-08T10:38:42Z</time>
      </trkpt>
      <trkpt lat="43.87183" lon="3.64556">
        <ele>904.74</ele>
        <time>2014-06-08T10:39:04Z</time>
      </trkpt>
      <trkpt lat="43.87183" lon="3.64554">
        <ele>902.82</ele>
        <time>2014-06-08T10:39:29Z</time>
      </trkpt>
      <trkpt lat="43.87189" lon="3.6455">
        <ele>904.74</ele>
        <time>2014-06-08T10:39:53Z</time>
      </trkpt>
      <trkpt lat="43.87183" lon="3.64555">
        <ele>902.82</ele>
        <time>2014-06-08T10:40:23Z</time>
      </trkpt>
      <trkpt lat="43.87182" lon="3.64553">
        <ele>904.74</ele>
        <time>2014-06-08T10:40:53Z</time>
      </trkpt>
      <trkpt lat="43.87182" lon="3.64556">
        <ele>909.06</ele>
        <time>2014-06-08T10:41:24Z</time>
      </trkpt>
      <trkpt lat="43.87183" lon="3.64556">
        <ele>908.58</ele>
        <time>2014-06-08T10:41:53Z</time>
      </trkpt>
      <trkpt lat="43.87182" lon="3.64555">
        <ele>909.06</ele>
        <time>2014-06-08T10:42:30Z</time>
      </trkpt>
      <trkpt lat="43.8718" lon="3.64555">
        <ele>907.14</ele>
        <time>2014-06-08T10:43:00Z</time>
      </trkpt>
      <trkpt lat="43.87183" lon="3.64555">
        <ele>906.18</ele>
        <time>2014-06-08T10:43:31Z</time>
      </trkpt>
      <trkpt lat="43.87184" lon="3.64554">
        <ele>905.7</ele>
        <time>2014-06-08T10:44:06Z</time>
      </trkpt>
      <trkpt lat="43.87184" lon="3.64558">
        <ele>906.18</ele>
        <time>2014-06-08T10:44:37Z</time>
      </trkpt>
      <trkpt lat="43.87186" lon="3.64557">
        <ele>906.18</ele>
        <time>2014-06-08T10:45:05Z</time>
      </trkpt>
      <trkpt lat="43.87184" lon="3.64557">
        <ele>907.14</ele>
        <time>2014-06-08T10:45:35Z</time>
      </trkpt>
      <trkpt lat="43.87184" lon="3.64558">
        <ele>910.51</ele>
        <time>2014-06-08T10:46:00Z</time>
      </trkpt>
      <trkpt lat="43.87174" lon="3.64556">
        <ele>914.35</ele>
        <time>2014-06-08T10:46:28Z</time>
      </trkpt>
      <trkpt lat="43.87167" lon="3.64555">
        <ele>917.72</ele>
        <time>2014-06-08T10:46:56Z</time>
      </trkpt>
      <trkpt lat="43.87169" lon="3.64555">
        <ele>918.68</ele>
        <time>2014-06-08T10:47:27Z</time>
      </trkpt>
      <trkpt lat="43.87157" lon="3.64553">
        <ele>916.75</ele>
        <time>2014-06-08T10:47:52Z</time>
      </trkpt>
      <trkpt lat="43.87168" lon="3.64556">
        <ele>916.27</ele>
        <time>2014-06-08T10:48:25Z</time>
      </trkpt>
      <trkpt lat="43.87182" lon="3.64555">
        <ele>913.87</ele>
        <time>2014-06-08T10:48:49Z</time>
      </trkpt>
      <trkpt lat="43.87186" lon="3.64555">
        <ele>907.14</ele>
        <time>2014-06-08T10:49:17Z</time>
      </trkpt>
      <trkpt lat="43.87187" lon="3.64556">
        <ele>906.18</ele>
        <time>2014-06-08T10:49:50Z</time>
      </trkpt>
      <trkpt lat="43.87181" lon="3.64558">
        <ele>907.62</ele>
        <time>2014-06-08T10:50:19Z</time>
      </trkpt>
      <trkpt lat="43.87183" lon="3.64555">
        <ele>906.66</ele>
        <time>2014-06-08T10:50:44Z</time>
      </trkpt>
      <trkpt lat="43.87182" lon="3.64554">
        <ele>902.33</ele>
        <time>2014-06-08T10:51:17Z</time>
      </trkpt>
      <trkpt lat="43.87183" lon="3.64555">
        <ele>903.78</ele>
        <time>2014-06-08T10:51:51Z</time>
      </trkpt>
      <trkpt lat="43.87184" lon="3.64556">
        <ele>906.66</ele>
        <time>2014-06-08T10:52:22Z</time>
      </trkpt>
      <trkpt lat="43.87185" lon="3.64556">
        <ele>907.62</ele>
        <time>2014-06-08T10:52:49Z</time>
      </trkpt>
      <trkpt lat="43.87188" lon="3.64553">
        <ele>905.7</ele>
        <time>2014-06-08T10:53:16Z</time>
      </trkpt>
      <trkpt lat="43.87185" lon="3.64551">
        <ele>902.82</ele>
        <time>2014-06-08T10:53:45Z</time>
      </trkpt>
      <trkpt lat="43.87182" lon="3.64552">
        <ele>903.3</ele>
        <time>2014-06-08T10:54:13Z</time>
      </trkpt>
      <trkpt lat="43.87184" lon="3.64554">
        <ele>904.26</ele>
        <time>2014-06-08T10:54:38Z</time>
      </trkpt>
      <trkpt lat="43.87184" lon="3.64555">
        <ele>908.1</ele>
        <time>2014-06-08T10:55:06Z</time>
      </trkpt>
      <trkpt lat="43.87181" lon="3.64554">
        <ele>907.62</ele>
        <time>2014-06-08T10:55:34Z</time>
      </trkpt>
      <trkpt lat="43.87182" lon="3.64552">
        <ele>899.93</ele>
        <time>2014-06-08T10:56:14Z</time>
      </trkpt>
      <trkpt lat="43.87184" lon="3.64549">
        <ele>896.09</ele>
        <time>2014-06-08T10:56:55Z</time>
      </trkpt>
      <trkpt lat="43.87183" lon="3.64549">
        <ele>897.53</ele>
        <time>2014-06-08T10:57:37Z</time>
      </trkpt>
      <trkpt lat="43.87182" lon="3.64551">
        <ele>900.41</ele>
        <time>2014-06-08T10:58:22Z</time>
      </trkpt>
      <trkpt lat="43.87182" lon="3.64553">
        <ele>902.82</ele>
        <time>2014-06-08T10:59:01Z</time>
      </trkpt>
      <trkpt lat="43.87181" lon="3.64553">
        <ele>904.74</ele>
        <time>2014-06-08T10:59:37Z</time>
      </trkpt>
      <trkpt lat="43.87181" lon="3.64553">
        <ele>904.26</ele>
        <time>2014-06-08T11:00:10Z</time>
      </trkpt>
      <trkpt lat="43.87181" lon="3.64553">
        <ele>904.26</ele>
        <time>2014-06-08T11:00:50Z</time>
      </trkpt>
      <trkpt lat="43.87181" lon="3.64551">
        <ele>906.18</ele>
        <time>2014-06-08T11:01:30Z</time>
      </trkpt>
      <trkpt lat="43.87181" lon="3.64551">
        <ele>907.14</ele>
        <time>2014-06-08T11:01:59Z</time>
      </trkpt>
      <trkpt lat="43.8718" lon="3.64552">
        <ele>908.1</ele>
        <time>2014-06-08T11:02:37Z</time>
      </trkpt>
      <trkpt lat="43.87181" lon="3.64552">
        <ele>907.62</ele>
        <time>2014-06-08T11:03:07Z</time>
      </trkpt>
      <trkpt lat="43.87181" lon="3.64553">
        <ele>907.62</ele>
        <time>2014-06-08T11:03:44Z</time>
      </trkpt>
      <trkpt lat="43.87181" lon="3.64555">
        <ele>908.1</ele>
        <time>2014-06-08T11:04:24Z</time>
      </trkpt>
      <trkpt lat="43.87181" lon="3.64553">
        <ele>906.66</ele>
        <time>2014-06-08T11:05:04Z</time>
      </trkpt>
      <trkpt lat="43.87183" lon="3.64552">
        <ele>905.7</ele>
        <time>2014-06-08T11:05:42Z</time>
      </trkpt>
      <trkpt lat="43.87182" lon="3.64553">
        <ele>906.66</ele>
        <time>2014-06-08T11:06:16Z</time>
      </trkpt>
      <trkpt lat="43.87182" lon="3.64553">
        <ele>907.14</ele>
        <time>2014-06-08T11:06:53Z</time>
      </trkpt>
      <trkpt lat="43.87182" lon="3.64553">
        <ele>906.18</ele>
        <time>2014-06-08T11:07:26Z</time>
      </trkpt>
      <trkpt lat="43.87182" lon="3.64553">
        <ele>906.18</ele>
        <time>2014-06-08T11:08:05Z</time>
      </trkpt>
      <trkpt lat="43.87182" lon="3.64553">
        <ele>905.7</ele>
        <time>2014-06-08T11:08:51Z</time>
      </trkpt>
      <trkpt lat="43.87182" lon="3.64552">
        <ele>907.14</ele>
        <time>2014-06-08T11:09:27Z</time>
      </trkpt>
      <trkpt lat="43.87181" lon="3.64553">
        <ele>905.7</ele>
        <time>2014-06-08T11:10:05Z</time>
      </trkpt>
      <trkpt lat="43.87181" lon="3.64553">
        <ele>906.18</ele>
        <time>2014-06-08T11:10:39Z</time>
      </trkpt>
      <trkpt lat="43.87181" lon="3.64554">
        <ele>905.7</ele>
        <time>2014-06-08T11:11:07Z</time>
      </trkpt>
      <trkpt lat="43.8718" lon="3.64554">
        <ele>906.66</ele>
        <time>2014-06-08T11:11:46Z</time>
      </trkpt>
      <trkpt lat="43.87181" lon="3.64554">
        <ele>906.18</ele>
        <time>2014-06-08T11:12:18Z</time>
      </trkpt>
      <trkpt lat="43.87181" lon="3.64554">
        <ele>905.22</ele>
        <time>2014-06-08T11:12:49Z</time>
      </trkpt>
      <trkpt lat="43.87182" lon="3.6455">
        <ele>904.26</ele>
        <time>2014-06-08T11:13:15Z</time>
      </trkpt>
      <trkpt lat="43.87178" lon="3.64546">
        <ele>903.78</ele>
        <time>2014-06-08T11:13:33Z</time>
      </trkpt>
      <trkpt lat="43.87185" lon="3.64553">
        <ele>903.78</ele>
        <time>2014-06-08T11:13:54Z</time>
      </trkpt>
      <trkpt lat="43.87185" lon="3.64557">
        <ele>901.37</ele>
        <time>2014-06-08T11:14:21Z</time>
      </trkpt>
      <trkpt lat="43.87185" lon="3.64553">
        <ele>903.3</ele>
        <time>2014-06-08T11:14:52Z</time>
      </trkpt>
      <trkpt lat="43.87186" lon="3.64554">
        <ele>904.74</ele>
        <time>2014-06-08T11:15:19Z</time>
      </trkpt>
      <trkpt lat="43.87184" lon="3.64556">
        <ele>905.22</ele>
        <time>2014-06-08T11:15:48Z</time>
      </trkpt>
      <trkpt lat="43.87181" lon="3.64557">
        <ele>905.7</ele>
        <time>2014-06-08T11:16:17Z</time>
      </trkpt>
      <trkpt lat="43.87181" lon="3.64557">
        <ele>903.3</ele>
        <time>2014-06-08T11:16:36Z</time>
      </trkpt>
      <trkpt lat="43.87182" lon="3.64557">
        <ele>903.78</ele>
        <time>2014-06-08T11:16:49Z</time>
      </trkpt>
      <trkpt lat="43.87182" lon="3.64553">
        <ele>901.85</ele>
        <time>2014-06-08T11:17:14Z</time>
      </trkpt>
      <trkpt lat="43.87184" lon="3.64555">
        <ele>901.37</ele>
        <time>2014-06-08T11:17:41Z</time>
      </trkpt>
      <trkpt lat="43.87182" lon="3.64556">
        <ele>903.3</ele>
        <time>2014-06-08T11:18:08Z</time>
      </trkpt>
      <trkpt lat="43.87181" lon="3.64555">
        <ele>904.26</ele>
        <time>2014-06-08T11:18:32Z</time>
      </trkpt>
      <trkpt lat="43.87177" lon="3.64565">
        <ele>905.22</ele>
        <time>2014-06-08T11:18:53Z</time>
      </trkpt>
      <trkpt lat="43.87176" lon="3.6457">
        <ele>904.74</ele>
        <time>2014-06-08T11:18:57Z</time>
      </trkpt>
      <trkpt lat="43.8717" lon="3.64591">
        <ele>903.78</ele>
        <time>2014-06-08T11:19:11Z</time>
      </trkpt>
      <trkpt lat="43.87155" lon="3.64614">
        <ele>902.33</ele>
        <time>2014-06-08T11:19:29Z</time>
      </trkpt>
      <trkpt lat="43.87158" lon="3.64631">
        <ele>900.41</ele>
        <time>2014-06-08T11:19:45Z</time>
      </trkpt>
      <trkpt lat="43.87168" lon="3.64654">
        <ele>901.37</ele>
        <time>2014-06-08T11:20:03Z</time>
      </trkpt>
      <trkpt lat="43.87176" lon="3.64666">
        <ele>900.89</ele>
        <time>2014-06-08T11:20:14Z</time>
      </trkpt>
      <trkpt lat="43.87189" lon="3.64676">
        <ele>901.37</ele>
        <time>2014-06-08T11:20:32Z</time>
      </trkpt>
      <trkpt lat="43.87206" lon="3.64688">
        <ele>898.01</ele>
        <time>2014-06-08T11:20:53Z</time>
      </trkpt>
      <trkpt lat="43.87209" lon="3.64719">
        <ele>894.64</ele>
        <time>2014-06-08T11:21:11Z</time>
      </trkpt>
      <trkpt lat="43.87207" lon="3.64729">
        <ele>894.64</ele>
        <time>2014-06-08T11:21:17Z</time>
      </trkpt>
      <trkpt lat="43.87195" lon="3.64759">
        <ele>893.2</ele>
        <time>2014-06-08T11:21:34Z</time>
      </trkpt>
      <trkpt lat="43.87192" lon="3.64779">
        <ele>892.24</ele>
        <time>2014-06-08T11:21:48Z</time>
      </trkpt>
      <trkpt lat="43.87191" lon="3.64783">
        <ele>891.28</ele>
        <time>2014-06-08T11:21:51Z</time>
      </trkpt>
      <trkpt lat="43.87189" lon="3.64802">
        <ele>889.84</ele>
        <time>2014-06-08T11:22:06Z</time>
      </trkpt>
      <trkpt lat="43.87188" lon="3.64816">
        <ele>889.36</ele>
        <time>2014-06-08T11:22:20Z</time>
      </trkpt>
      <trkpt lat="43.87191" lon="3.64828">
        <ele>887.43</ele>
        <time>2014-06-08T11:22:33Z</time>
      </trkpt>
      <trkpt lat="43.87197" lon="3.64843">
        <ele>885.51</ele>
        <time>2014-06-08T11:22:49Z</time>
      </trkpt>
      <trkpt lat="43.87201" lon="3.64862">
        <ele>881.67</ele>
        <time>2014-06-08T11:23:04Z</time>
      </trkpt>
      <trkpt lat="43.87201" lon="3.64864">
        <ele>881.67</ele>
        <time>2014-06-08T11:23:06Z</time>
      </trkpt>
      <trkpt lat="43.87209" lon="3.64883">
        <ele>880.22</ele>
        <time>2014-06-08T11:23:24Z</time>
      </trkpt>
      <trkpt lat="43.87214" lon="3.64903">
        <ele>877.82</ele>
        <time>2014-06-08T11:23:40Z</time>
      </trkpt>
      <trkpt lat="43.87224" lon="3.64917">
        <ele>877.82</ele>
        <time>2014-06-08T11:23:57Z</time>
      </trkpt>
      <trkpt lat="43.87235" lon="3.64935">
        <ele>874.94</ele>
        <time>2014-06-08T11:24:14Z</time>
      </trkpt>
      <trkpt lat="43.87241" lon="3.64955">
        <ele>871.09</ele>
        <time>2014-06-08T11:24:32Z</time>
      </trkpt>
      <trkpt lat="43.87253" lon="3.6497">
        <ele>870.13</ele>
        <time>2014-06-08T11:24:50Z</time>
      </trkpt>
      <trkpt lat="43.87261" lon="3.64985">
        <ele>870.61</ele>
        <time>2014-06-08T11:25:06Z</time>
      </trkpt>
      <trkpt lat="43.87269" lon="3.64997">
        <ele>871.09</ele>
        <time>2014-06-08T11:25:20Z</time>
      </trkpt>
      <trkpt lat="43.87278" lon="3.65019">
        <ele>871.09</ele>
        <time>2014-06-08T11:25:35Z</time>
      </trkpt>
      <trkpt lat="43.8729" lon="3.65038">
        <ele>870.61</ele>
        <time>2014-06-08T11:25:54Z</time>
      </trkpt>
      <trkpt lat="43.87296" lon="3.65057">
        <ele>867.73</ele>
        <time>2014-06-08T11:26:09Z</time>
      </trkpt>
      <trkpt lat="43.87304" lon="3.65068">
        <ele>866.77</ele>
        <time>2014-06-08T11:26:23Z</time>
      </trkpt>
      <trkpt lat="43.87313" lon="3.65083">
        <ele>864.84</ele>
        <time>2014-06-08T11:26:40Z</time>
      </trkpt>
      <trkpt lat="43.87317" lon="3.65096">
        <ele>861.48</ele>
        <time>2014-06-08T11:26:55Z</time>
      </trkpt>
      <trkpt lat="43.87324" lon="3.65114">
        <ele>857.63</ele>
        <time>2014-06-08T11:27:11Z</time>
      </trkpt>
      <trkpt lat="43.87327" lon="3.65127">
        <ele>854.75</ele>
        <time>2014-06-08T11:27:25Z</time>
      </trkpt>
      <trkpt lat="43.87337" lon="3.6513">
        <ele>852.83</ele>
        <time>2014-06-08T11:27:43Z</time>
      </trkpt>
      <trkpt lat="43.87351" lon="3.65143">
        <ele>848.98</ele>
        <time>2014-06-08T11:28:00Z</time>
      </trkpt>
      <trkpt lat="43.87357" lon="3.65152">
        <ele>848.02</ele>
        <time>2014-06-08T11:28:17Z</time>
      </trkpt>
      <trkpt lat="43.87362" lon="3.65169">
        <ele>846.58</ele>
        <time>2014-06-08T11:28:32Z</time>
      </trkpt>
      <trkpt lat="43.8737" lon="3.65176">
        <ele>846.1</ele>
        <time>2014-06-08T11:28:48Z</time>
      </trkpt>
      <trkpt lat="43.87379" lon="3.6519">
        <ele>845.62</ele>
        <time>2014-06-08T11:29:04Z</time>
      </trkpt>
      <trkpt lat="43.87393" lon="3.652">
        <ele>843.69</ele>
        <time>2014-06-08T11:29:21Z</time>
      </trkpt>
      <trkpt lat="43.87401" lon="3.65209">
        <ele>842.25</ele>
        <time>2014-06-08T11:29:38Z</time>
      </trkpt>
      <trkpt lat="43.87411" lon="3.65214">
        <ele>839.85</ele>
        <time>2014-06-08T11:29:56Z</time>
      </trkpt>
      <trkpt lat="43.8742" lon="3.65239">
        <ele>835.52</ele>
        <time>2014-06-08T11:30:15Z</time>
      </trkpt>
      <trkpt lat="43.87427" lon="3.65258">
        <ele>830.72</ele>
        <time>2014-06-08T11:30:30Z</time>
      </trkpt>
      <trkpt lat="43.87436" lon="3.65271">
        <ele>829.27</ele>
        <time>2014-06-08T11:30:46Z</time>
      </trkpt>
      <trkpt lat="43.87446" lon="3.65282">
        <ele>826.39</ele>
        <time>2014-06-08T11:31:01Z</time>
      </trkpt>
      <trkpt lat="43.87452" lon="3.65303">
        <ele>823.03</ele>
        <time>2014-06-08T11:31:16Z</time>
      </trkpt>
      <trkpt lat="43.8746" lon="3.6532">
        <ele>819.66</ele>
        <time>2014-06-08T11:31:34Z</time>
      </trkpt>
      <trkpt lat="43.87469" lon="3.65333">
        <ele>818.22</ele>
        <time>2014-06-08T11:31:49Z</time>
      </trkpt>
      <trkpt lat="43.87482" lon="3.65343">
        <ele>816.3</ele>
        <time>2014-06-08T11:32:06Z</time>
      </trkpt>
      <trkpt lat="43.87488" lon="3.65358">
        <ele>812.45</ele>
        <time>2014-06-08T11:32:17Z</time>
      </trkpt>
      <trkpt lat="43.87489" lon="3.65384">
        <ele>808.13</ele>
        <time>2014-06-08T11:32:33Z</time>
      </trkpt>
      <trkpt lat="43.8749" lon="3.65401">
        <ele>806.68</ele>
        <time>2014-06-08T11:32:42Z</time>
      </trkpt>
      <trkpt lat="43.87496" lon="3.65428">
        <ele>805.72</ele>
        <time>2014-06-08T11:33:01Z</time>
      </trkpt>
      <trkpt lat="43.87494" lon="3.65452">
        <ele>803.8</ele>
        <time>2014-06-08T11:33:16Z</time>
      </trkpt>
      <trkpt lat="43.87495" lon="3.65473">
        <ele>802.36</ele>
        <time>2014-06-08T11:33:31Z</time>
      </trkpt>
      <trkpt lat="43.875" lon="3.65492">
        <ele>798.99</ele>
        <time>2014-06-08T11:33:47Z</time>
      </trkpt>
      <trkpt lat="43.87502" lon="3.65509">
        <ele>797.07</ele>
        <time>2014-06-08T11:34:02Z</time>
      </trkpt>
      <trkpt lat="43.87497" lon="3.65526">
        <ele>794.67</ele>
        <time>2014-06-08T11:34:17Z</time>
      </trkpt>
      <trkpt lat="43.87491" lon="3.65545">
        <ele>792.26</ele>
        <time>2014-06-08T11:34:32Z</time>
      </trkpt>
      <trkpt lat="43.87484" lon="3.65565">
        <ele>789.86</ele>
        <time>2014-06-08T11:34:48Z</time>
      </trkpt>
      <trkpt lat="43.87482" lon="3.65586">
        <ele>787.46</ele>
        <time>2014-06-08T11:35:04Z</time>
      </trkpt>
      <trkpt lat="43.87485" lon="3.65593">
        <ele>786.5</ele>
        <time>2014-06-08T11:35:11Z</time>
      </trkpt>
      <trkpt lat="43.87493" lon="3.65621">
        <ele>785.53</ele>
        <time>2014-06-08T11:35:29Z</time>
      </trkpt>
      <trkpt lat="43.87502" lon="3.65644">
        <ele>784.09</ele>
        <time>2014-06-08T11:35:44Z</time>
      </trkpt>
      <trkpt lat="43.87513" lon="3.65663">
        <ele>783.61</ele>
        <time>2014-06-08T11:36:00Z</time>
      </trkpt>
      <trkpt lat="43.87521" lon="3.65675">
        <ele>782.65</ele>
        <time>2014-06-08T11:36:11Z</time>
      </trkpt>
      <trkpt lat="43.87538" lon="3.657">
        <ele>780.25</ele>
        <time>2014-06-08T11:36:31Z</time>
      </trkpt>
      <trkpt lat="43.87549" lon="3.65719">
        <ele>780.73</ele>
        <time>2014-06-08T11:36:49Z</time>
      </trkpt>
      <trkpt lat="43.87551" lon="3.65723">
        <ele>780.25</ele>
        <time>2014-06-08T11:37:15Z</time>
      </trkpt>
      <trkpt lat="43.87563" lon="3.65739">
        <ele>778.81</ele>
        <time>2014-06-08T11:37:33Z</time>
      </trkpt>
      <trkpt lat="43.87576" lon="3.65765">
        <ele>776.4</ele>
        <time>2014-06-08T11:37:52Z</time>
      </trkpt>
      <trkpt lat="43.87588" lon="3.6579">
        <ele>773.04</ele>
        <time>2014-06-08T11:38:10Z</time>
      </trkpt>
      <trkpt lat="43.87599" lon="3.65821">
        <ele>770.63</ele>
        <time>2014-06-08T11:38:30Z</time>
      </trkpt>
      <trkpt lat="43.87607" lon="3.65849">
        <ele>768.71</ele>
        <time>2014-06-08T11:38:46Z</time>
      </trkpt>
      <trkpt lat="43.87618" lon="3.65879">
        <ele>766.31</ele>
        <time>2014-06-08T11:39:05Z</time>
      </trkpt>
      <trkpt lat="43.87625" lon="3.65911">
        <ele>762.94</ele>
        <time>2014-06-08T11:39:23Z</time>
      </trkpt>
      <trkpt lat="43.87632" lon="3.65946">
        <ele>759.1</ele>
        <time>2014-06-08T11:39:43Z</time>
      </trkpt>
      <trkpt lat="43.87636" lon="3.65979">
        <ele>758.62</ele>
        <time>2014-06-08T11:40:00Z</time>
      </trkpt>
      <trkpt lat="43.87636" lon="3.66014">
        <ele>757.66</ele>
        <time>2014-06-08T11:40:19Z</time>
      </trkpt>
      <trkpt lat="43.87639" lon="3.66033">
        <ele>756.69</ele>
        <time>2014-06-08T11:40:30Z</time>
      </trkpt>
      <trkpt lat="43.87641" lon="3.66039">
        <ele>756.69</ele>
        <time>2014-06-08T11:40:34Z</time>
      </trkpt>
      <trkpt lat="43.87655" lon="3.66064">
        <ele>753.81</ele>
        <time>2014-06-08T11:40:53Z</time>
      </trkpt>
      <trkpt lat="43.8766" lon="3.66089">
        <ele>752.37</ele>
        <time>2014-06-08T11:41:10Z</time>
      </trkpt>
      <trkpt lat="43.87663" lon="3.66089">
        <ele>751.89</ele>
        <time>2014-06-08T11:41:35Z</time>
      </trkpt>
      <trkpt lat="43.87661" lon="3.66091">
        <ele>751.89</ele>
        <time>2014-06-08T11:41:50Z</time>
      </trkpt>
      <trkpt lat="43.87661" lon="3.66091">
        <ele>752.85</ele>
        <time>2014-06-08T11:42:08Z</time>
      </trkpt>
      <trkpt lat="43.8766" lon="3.66094">
        <ele>752.85</ele>
        <time>2014-06-08T11:42:15Z</time>
      </trkpt>
      <trkpt lat="43.87649" lon="3.66124">
        <ele>748.52</ele>
        <time>2014-06-08T11:42:35Z</time>
      </trkpt>
      <trkpt lat="43.87642" lon="3.66135">
        <ele>748.52</ele>
        <time>2014-06-08T11:42:48Z</time>
      </trkpt>
      <trkpt lat="43.87642" lon="3.66135">
        <ele>749.49</ele>
        <time>2014-06-08T11:42:51Z</time>
      </trkpt>
      <trkpt lat="43.87642" lon="3.66164">
        <ele>746.6</ele>
        <time>2014-06-08T11:43:09Z</time>
      </trkpt>
      <trkpt lat="43.87656" lon="3.66184">
        <ele>746.12</ele>
        <time>2014-06-08T11:43:28Z</time>
      </trkpt>
      <trkpt lat="43.87667" lon="3.662">
        <ele>745.64</ele>
        <time>2014-06-08T11:43:46Z</time>
      </trkpt>
      <trkpt lat="43.87676" lon="3.66225">
        <ele>744.68</ele>
        <time>2014-06-08T11:44:07Z</time>
      </trkpt>
      <trkpt lat="43.87681" lon="3.66255">
        <ele>741.79</ele>
        <time>2014-06-08T11:44:24Z</time>
      </trkpt>
      <trkpt lat="43.87685" lon="3.66285">
        <ele>739.39</ele>
        <time>2014-06-08T11:44:44Z</time>
      </trkpt>
      <trkpt lat="43.87694" lon="3.66315">
        <ele>737.47</ele>
        <time>2014-06-08T11:45:04Z</time>
      </trkpt>
      <trkpt lat="43.87705" lon="3.6634">
        <ele>735.55</ele>
        <time>2014-06-08T11:45:21Z</time>
      </trkpt>
      <trkpt lat="43.87719" lon="3.6636">
        <ele>734.1</ele>
        <time>2014-06-08T11:45:38Z</time>
      </trkpt>
      <trkpt lat="43.8773" lon="3.66379">
        <ele>731.7</ele>
        <time>2014-06-08T11:45:53Z</time>
      </trkpt>
      <trkpt lat="43.8775" lon="3.664">
        <ele>729.3</ele>
        <time>2014-06-08T11:46:14Z</time>
      </trkpt>
      <trkpt lat="43.87766" lon="3.66414">
        <ele>726.89</ele>
        <time>2014-06-08T11:46:29Z</time>
      </trkpt>
      <trkpt lat="43.87791" lon="3.66435">
        <ele>723.05</ele>
        <time>2014-06-08T11:46:52Z</time>
      </trkpt>
      <trkpt lat="43.87813" lon="3.66459">
        <ele>720.16</ele>
        <time>2014-06-08T11:47:13Z</time>
      </trkpt>
      <trkpt lat="43.87838" lon="3.66493">
        <ele>717.28</ele>
        <time>2014-06-08T11:47:37Z</time>
      </trkpt>
      <trkpt lat="43.87851" lon="3.66525">
        <ele>713.92</ele>
        <time>2014-06-08T11:47:56Z</time>
      </trkpt>
      <trkpt lat="43.87853" lon="3.66565">
        <ele>713.92</ele>
        <time>2014-06-08T11:48:15Z</time>
      </trkpt>
      <trkpt lat="43.87851" lon="3.66597">
        <ele>716.8</ele>
        <time>2014-06-08T11:48:32Z</time>
      </trkpt>
      <trkpt lat="43.87855" lon="3.66629">
        <ele>717.76</ele>
        <time>2014-06-08T11:48:50Z</time>
      </trkpt>
      <trkpt lat="43.87872" lon="3.66651">
        <ele>716.32</ele>
        <time>2014-06-08T11:49:08Z</time>
      </trkpt>
      <trkpt lat="43.87894" lon="3.66674">
        <ele>711.99</ele>
        <time>2014-06-08T11:49:27Z</time>
      </trkpt>
      <trkpt lat="43.87909" lon="3.66696">
        <ele>710.55</ele>
        <time>2014-06-08T11:49:44Z</time>
      </trkpt>
      <trkpt lat="43.87924" lon="3.66719">
        <ele>709.11</ele>
        <time>2014-06-08T11:50:02Z</time>
      </trkpt>
      <trkpt lat="43.87942" lon="3.6674">
        <ele>707.19</ele>
        <time>2014-06-08T11:50:19Z</time>
      </trkpt>
      <trkpt lat="43.8796" lon="3.66767">
        <ele>705.75</ele>
        <time>2014-06-08T11:50:37Z</time>
      </trkpt>
      <trkpt lat="43.87968" lon="3.66802">
        <ele>704.3</ele>
        <time>2014-06-08T11:50:56Z</time>
      </trkpt>
      <trkpt lat="43.8797" lon="3.66838">
        <ele>704.78</ele>
        <time>2014-06-08T11:51:14Z</time>
      </trkpt>
      <trkpt lat="43.87974" lon="3.66874">
        <ele>707.67</ele>
        <time>2014-06-08T11:51:34Z</time>
      </trkpt>
      <trkpt lat="43.87978" lon="3.66906">
        <ele>709.11</ele>
        <time>2014-06-08T11:51:52Z</time>
      </trkpt>
      <trkpt lat="43.87981" lon="3.66938">
        <ele>708.63</ele>
        <time>2014-06-08T11:52:09Z</time>
      </trkpt>
      <trkpt lat="43.87986" lon="3.6697">
        <ele>710.07</ele>
        <time>2014-06-08T11:52:27Z</time>
      </trkpt>
      <trkpt lat="43.8799" lon="3.66999">
        <ele>711.99</ele>
        <time>2014-06-08T11:52:43Z</time>
      </trkpt>
      <trkpt lat="43.87995" lon="3.67026">
        <ele>710.55</ele>
        <time>2014-06-08T11:52:58Z</time>
      </trkpt>
      <trkpt lat="43.88001" lon="3.67058">
        <ele>710.07</ele>
        <time>2014-06-08T11:53:16Z</time>
      </trkpt>
      <trkpt lat="43.88009" lon="3.67089">
        <ele>708.63</ele>
        <time>2014-06-08T11:53:36Z</time>
      </trkpt>
      <trkpt lat="43.88018" lon="3.67123">
        <ele>705.26</ele>
        <time>2014-06-08T11:53:56Z</time>
      </trkpt>
      <trkpt lat="43.88017" lon="3.67153">
        <ele>702.86</ele>
        <time>2014-06-08T11:54:13Z</time>
      </trkpt>
      <trkpt lat="43.88003" lon="3.67173">
        <ele>701.9</ele>
        <time>2014-06-08T11:54:29Z</time>
      </trkpt>
      <trkpt lat="43.87991" lon="3.67186">
        <ele>700.94</ele>
        <time>2014-06-08T11:54:40Z</time>
      </trkpt>
      <trkpt lat="43.87989" lon="3.6719">
        <ele>700.94</ele>
        <time>2014-06-08T11:54:43Z</time>
      </trkpt>
      <trkpt lat="43.87972" lon="3.67219">
        <ele>696.13</ele>
        <time>2014-06-08T11:55:02Z</time>
      </trkpt>
      <trkpt lat="43.87963" lon="3.67247">
        <ele>692.77</ele>
        <time>2014-06-08T11:55:19Z</time>
      </trkpt>
      <trkpt lat="43.87965" lon="3.67277">
        <ele>689.4</ele>
        <time>2014-06-08T11:55:37Z</time>
      </trkpt>
      <trkpt lat="43.87972" lon="3.67306">
        <ele>685.08</ele>
        <time>2014-06-08T11:55:55Z</time>
      </trkpt>
      <trkpt lat="43.87985" lon="3.67329">
        <ele>680.75</ele>
        <time>2014-06-08T11:56:11Z</time>
      </trkpt>
      <trkpt lat="43.88006" lon="3.67344">
        <ele>676.42</ele>
        <time>2014-06-08T11:56:29Z</time>
      </trkpt>
      <trkpt lat="43.88029" lon="3.67356">
        <ele>675.46</ele>
        <time>2014-06-08T11:56:48Z</time>
      </trkpt>
      <trkpt lat="43.88051" lon="3.67357">
        <ele>673.54</ele>
        <time>2014-06-08T11:57:05Z</time>
      </trkpt>
      <trkpt lat="43.88076" lon="3.67348">
        <ele>673.54</ele>
        <time>2014-06-08T11:57:23Z</time>
      </trkpt>
      <trkpt lat="43.88091" lon="3.67363">
        <ele>671.14</ele>
        <time>2014-06-08T11:57:38Z</time>
      </trkpt>
      <trkpt lat="43.88108" lon="3.67386">
        <ele>668.25</ele>
        <time>2014-06-08T11:57:57Z</time>
      </trkpt>
      <trkpt lat="43.88127" lon="3.67402">
        <ele>667.29</ele>
        <time>2014-06-08T11:58:15Z</time>
      </trkpt>
      <trkpt lat="43.88132" lon="3.67409">
        <ele>667.77</ele>
        <time>2014-06-08T11:58:31Z</time>
      </trkpt>
      <trkpt lat="43.88132" lon="3.67412">
        <ele>666.33</ele>
        <time>2014-06-08T11:58:45Z</time>
      </trkpt>
      <trkpt lat="43.88135" lon="3.67412">
        <ele>666.81</ele>
        <time>2014-06-08T11:59:06Z</time>
      </trkpt>
      <trkpt lat="43.88134" lon="3.67415">
        <ele>667.29</ele>
        <time>2014-06-08T11:59:36Z</time>
      </trkpt>
      <trkpt lat="43.88134" lon="3.67413">
        <ele>667.77</ele>
        <time>2014-06-08T12:00:04Z</time>
      </trkpt>
      <trkpt lat="43.88135" lon="3.67411">
        <ele>667.29</ele>
        <time>2014-06-08T12:00:33Z</time>
      </trkpt>
      <trkpt lat="43.88132" lon="3.67415">
        <ele>666.33</ele>
        <time>2014-06-08T12:00:51Z</time>
      </trkpt>
      <trkpt lat="43.88133" lon="3.67426">
        <ele>664.89</ele>
        <time>2014-06-08T12:01:04Z</time>
      </trkpt>
      <trkpt lat="43.8813" lon="3.67437">
        <ele>662.97</ele>
        <time>2014-06-08T12:01:20Z</time>
      </trkpt>
      <trkpt lat="43.88125" lon="3.67447">
        <ele>661.04</ele>
        <time>2014-06-08T12:01:38Z</time>
      </trkpt>
      <trkpt lat="43.88122" lon="3.67462">
        <ele>659.12</ele>
        <time>2014-06-08T12:01:52Z</time>
      </trkpt>
      <trkpt lat="43.88118" lon="3.67476">
        <ele>656.72</ele>
        <time>2014-06-08T12:02:09Z</time>
      </trkpt>
      <trkpt lat="43.88115" lon="3.6748">
        <ele>656.24</ele>
        <time>2014-06-08T12:02:13Z</time>
      </trkpt>
      <trkpt lat="43.88112" lon="3.67492">
        <ele>655.28</ele>
        <time>2014-06-08T12:02:27Z</time>
      </trkpt>
      <trkpt lat="43.88114" lon="3.67509">
        <ele>651.43</ele>
        <time>2014-06-08T12:02:46Z</time>
      </trkpt>
      <trkpt lat="43.88107" lon="3.67531">
        <ele>649.03</ele>
        <time>2014-06-08T12:03:02Z</time>
      </trkpt>
      <trkpt lat="43.88106" lon="3.67548">
        <ele>646.62</ele>
        <time>2014-06-08T12:03:19Z</time>
      </trkpt>
      <trkpt lat="43.88112" lon="3.67551">
        <ele>642.3</ele>
        <time>2014-06-08T12:03:37Z</time>
      </trkpt>
      <trkpt lat="43.88109" lon="3.67562">
        <ele>639.41</ele>
        <time>2014-06-08T12:03:52Z</time>
      </trkpt>
      <trkpt lat="43.88111" lon="3.67568">
        <ele>637.49</ele>
        <time>2014-06-08T12:04:05Z</time>
      </trkpt>
      <trkpt lat="43.88115" lon="3.67581">
        <ele>631.24</ele>
        <time>2014-06-08T12:04:24Z</time>
      </trkpt>
      <trkpt lat="43.88116" lon="3.6759">
        <ele>623.55</ele>
        <time>2014-06-08T12:04:40Z</time>
      </trkpt>
      <trkpt lat="43.8812" lon="3.67604">
        <ele>618.75</ele>
        <time>2014-06-08T12:04:53Z</time>
      </trkpt>
      <trkpt lat="43.8812" lon="3.67618">
        <ele>615.38</ele>
        <time>2014-06-08T12:05:06Z</time>
      </trkpt>
      <trkpt lat="43.88125" lon="3.67625">
        <ele>612.5</ele>
        <time>2014-06-08T12:05:23Z</time>
      </trkpt>
      <trkpt lat="43.88128" lon="3.67625">
        <ele>612.98</ele>
        <time>2014-06-08T12:05:44Z</time>
      </trkpt>
      <trkpt lat="43.8813" lon="3.67623">
        <ele>614.42</ele>
        <time>2014-06-08T12:06:03Z</time>
      </trkpt>
      <trkpt lat="43.88129" lon="3.67628">
        <ele>618.26</ele>
        <time>2014-06-08T12:06:22Z</time>
      </trkpt>
      <trkpt lat="43.8813" lon="3.67628">
        <ele>621.63</ele>
        <time>2014-06-08T12:06:44Z</time>
      </trkpt>
      <trkpt lat="43.88131" lon="3.6763">
        <ele>622.59</ele>
        <time>2014-06-08T12:07:00Z</time>
      </trkpt>
      <trkpt lat="43.88131" lon="3.6763">
        <ele>623.07</ele>
        <time>2014-06-08T12:07:15Z</time>
      </trkpt>
      <trkpt lat="43.88133" lon="3.67637">
        <ele>621.15</ele>
        <time>2014-06-08T12:07:31Z</time>
      </trkpt>
      <trkpt lat="43.88135" lon="3.67649">
        <ele>616.82</ele>
        <time>2014-06-08T12:07:45Z</time>
      </trkpt>
      <trkpt lat="43.88137" lon="3.67656">
        <ele>613.94</ele>
        <time>2014-06-08T12:08:02Z</time>
      </trkpt>
      <trkpt lat="43.8814" lon="3.67662">
        <ele>611.06</ele>
        <time>2014-06-08T12:08:18Z</time>
      </trkpt>
      <trkpt lat="43.88143" lon="3.67662">
        <ele>605.77</ele>
        <time>2014-06-08T12:08:29Z</time>
      </trkpt>
      <trkpt lat="43.88151" lon="3.67653">
        <ele>598.56</ele>
        <time>2014-06-08T12:08:45Z</time>
      </trkpt>
      <trkpt lat="43.88156" lon="3.67649">
        <ele>593.27</ele>
        <time>2014-06-08T12:09:00Z</time>
      </trkpt>
      <trkpt lat="43.88161" lon="3.67662">
        <ele>589.91</ele>
        <time>2014-06-08T12:09:18Z</time>
      </trkpt>
      <trkpt lat="43.88165" lon="3.67664">
        <ele>586.54</ele>
        <time>2014-06-08T12:09:27Z</time>
      </trkpt>
      <trkpt lat="43.88169" lon="3.67649">
        <ele>581.73</ele>
        <time>2014-06-08T12:09:42Z</time>
      </trkpt>
      <trkpt lat="43.88173" lon="3.67645">
        <ele>580.29</ele>
        <time>2014-06-08T12:09:51Z</time>
      </trkpt>
      <trkpt lat="43.88187" lon="3.6763">
        <ele>580.29</ele>
        <time>2014-06-08T12:10:07Z</time>
      </trkpt>
      <trkpt lat="43.88192" lon="3.67626">
        <ele>578.85</ele>
        <time>2014-06-08T12:10:15Z</time>
      </trkpt>
      <trkpt lat="43.88195" lon="3.67625">
        <ele>578.37</ele>
        <time>2014-06-08T12:10:18Z</time>
      </trkpt>
      <trkpt lat="43.88202" lon="3.67614">
        <ele>575.49</ele>
        <time>2014-06-08T12:10:31Z</time>
      </trkpt>
      <trkpt lat="43.88211" lon="3.67609">
        <ele>572.12</ele>
        <time>2014-06-08T12:10:42Z</time>
      </trkpt>
      <trkpt lat="43.88226" lon="3.67605">
        <ele>571.16</ele>
        <time>2014-06-08T12:10:56Z</time>
      </trkpt>
      <trkpt lat="43.88239" lon="3.676">
        <ele>569.24</ele>
        <time>2014-06-08T12:11:09Z</time>
      </trkpt>
      <trkpt lat="43.88251" lon="3.67599">
        <ele>566.83</ele>
        <time>2014-06-08T12:11:21Z</time>
      </trkpt>
      <trkpt lat="43.88264" lon="3.676">
        <ele>562.03</ele>
        <time>2014-06-08T12:11:37Z</time>
      </trkpt>
      <trkpt lat="43.88277" lon="3.67598">
        <ele>557.7</ele>
        <time>2014-06-08T12:11:51Z</time>
      </trkpt>
      <trkpt lat="43.88293" lon="3.67596">
        <ele>556.74</ele>
        <time>2014-06-08T12:12:05Z</time>
      </trkpt>
      <trkpt lat="43.88299" lon="3.67596">
        <ele>555.78</ele>
        <time>2014-06-08T12:12:10Z</time>
      </trkpt>
      <trkpt lat="43.88314" lon="3.67596">
        <ele>552.9</ele>
        <time>2014-06-08T12:12:24Z</time>
      </trkpt>
      <trkpt lat="43.88319" lon="3.67594">
        <ele>551.45</ele>
        <time>2014-06-08T12:12:30Z</time>
      </trkpt>
      <trkpt lat="43.88336" lon="3.67586">
        <ele>549.53</ele>
        <time>2014-06-08T12:12:45Z</time>
      </trkpt>
      <trkpt lat="43.88348" lon="3.67578">
        <ele>546.65</ele>
        <time>2014-06-08T12:12:58Z</time>
      </trkpt>
      <trkpt lat="43.88352" lon="3.67576">
        <ele>545.2</ele>
        <time>2014-06-08T12:13:03Z</time>
      </trkpt>
      <trkpt lat="43.88354" lon="3.67577">
        <ele>544.24</ele>
        <time>2014-06-08T12:13:05Z</time>
      </trkpt>
      <trkpt lat="43.88358" lon="3.67575">
        <ele>544.24</ele>
        <time>2014-06-08T12:13:08Z</time>
      </trkpt>
      <trkpt lat="43.88363" lon="3.67569">
        <ele>543.28</ele>
        <time>2014-06-08T12:13:14Z</time>
      </trkpt>
      <trkpt lat="43.88377" lon="3.67555">
        <ele>541.36</ele>
        <time>2014-06-08T12:13:29Z</time>
      </trkpt>
      <trkpt lat="43.88377" lon="3.67554">
        <ele>541.36</ele>
        <time>2014-06-08T12:13:30Z</time>
      </trkpt>
      <trkpt lat="43.88387" lon="3.67544">
        <ele>537.51</ele>
        <time>2014-06-08T12:13:45Z</time>
      </trkpt>
      <trkpt lat="43.88396" lon="3.67542">
        <ele>534.15</ele>
        <time>2014-06-08T12:13:58Z</time>
      </trkpt>
      <trkpt lat="43.88402" lon="3.67549">
        <ele>533.19</ele>
        <time>2014-06-08T12:14:06Z</time>
      </trkpt>
      <trkpt lat="43.88409" lon="3.67552">
        <ele>531.75</ele>
        <time>2014-06-08T12:14:14Z</time>
      </trkpt>
      <trkpt lat="43.88422" lon="3.67545">
        <ele>529.34</ele>
        <time>2014-06-08T12:14:28Z</time>
      </trkpt>
      <trkpt lat="43.88434" lon="3.67542">
        <ele>526.46</ele>
        <time>2014-06-08T12:14:41Z</time>
      </trkpt>
      <trkpt lat="43.88441" lon="3.67541">
        <ele>524.06</ele>
        <time>2014-06-08T12:14:47Z</time>
      </trkpt>
      <trkpt lat="43.88453" lon="3.67535">
        <ele>520.69</ele>
        <time>2014-06-08T12:15:02Z</time>
      </trkpt>
      <trkpt lat="43.88465" lon="3.67523">
        <ele>518.77</ele>
        <time>2014-06-08T12:15:15Z</time>
      </trkpt>
      <trkpt lat="43.88474" lon="3.67518">
        <ele>512.52</ele>
        <time>2014-06-08T12:15:29Z</time>
      </trkpt>
      <trkpt lat="43.88486" lon="3.67509">
        <ele>509.16</ele>
        <time>2014-06-08T12:15:42Z</time>
      </trkpt>
      <trkpt lat="43.88495" lon="3.67502">
        <ele>508.19</ele>
        <time>2014-06-08T12:15:51Z</time>
      </trkpt>
      <trkpt lat="43.885" lon="3.67499">
        <ele>507.23</ele>
        <time>2014-06-08T12:15:57Z</time>
      </trkpt>
      <trkpt lat="43.88515" lon="3.67494">
        <ele>504.35</ele>
        <time>2014-06-08T12:16:12Z</time>
      </trkpt>
      <trkpt lat="43.88529" lon="3.6749">
        <ele>500.5</ele>
        <time>2014-06-08T12:16:26Z</time>
      </trkpt>
      <trkpt lat="43.88545" lon="3.67487">
        <ele>497.14</ele>
        <time>2014-06-08T12:16:40Z</time>
      </trkpt>
      <trkpt lat="43.88559" lon="3.67485">
        <ele>495.7</ele>
        <time>2014-06-08T12:16:52Z</time>
      </trkpt>
      <trkpt lat="43.88572" lon="3.67491">
        <ele>491.85</ele>
        <time>2014-06-08T12:17:06Z</time>
      </trkpt>
      <trkpt lat="43.88589" lon="3.67496">
        <ele>488.97</ele>
        <time>2014-06-08T12:17:21Z</time>
      </trkpt>
      <trkpt lat="43.88594" lon="3.67498">
        <ele>488.49</ele>
        <time>2014-06-08T12:17:25Z</time>
      </trkpt>
      <trkpt lat="43.88609" lon="3.67501">
        <ele>487.05</ele>
        <time>2014-06-08T12:17:38Z</time>
      </trkpt>
      <trkpt lat="43.88612" lon="3.675">
        <ele>486.08</ele>
        <time>2014-06-08T12:17:41Z</time>
      </trkpt>
      <trkpt lat="43.88619" lon="3.67499">
        <ele>485.6</ele>
        <time>2014-06-08T12:17:46Z</time>
      </trkpt>
      <trkpt lat="43.88627" lon="3.67494">
        <ele>485.12</ele>
        <time>2014-06-08T12:17:54Z</time>
      </trkpt>
      <trkpt lat="43.88632" lon="3.67495">
        <ele>484.16</ele>
        <time>2014-06-08T12:17:59Z</time>
      </trkpt>
      <trkpt lat="43.88639" lon="3.67482">
        <ele>482.72</ele>
        <time>2014-06-08T12:18:11Z</time>
      </trkpt>
      <trkpt lat="43.88639" lon="3.67485">
        <ele>484.16</ele>
        <time>2014-06-08T12:18:26Z</time>
      </trkpt>
      <trkpt lat="43.88639" lon="3.67486">
        <ele>485.6</ele>
        <time>2014-06-08T12:18:47Z</time>
      </trkpt>
      <trkpt lat="43.88639" lon="3.67483">
        <ele>484.64</ele>
        <time>2014-06-08T12:19:11Z</time>
      </trkpt>
      <trkpt lat="43.88642" lon="3.67479">
        <ele>483.68</ele>
        <time>2014-06-08T12:19:19Z</time>
      </trkpt>
      <trkpt lat="43.88648" lon="3.67484">
        <ele>483.2</ele>
        <time>2014-06-08T12:19:28Z</time>
      </trkpt>
      <trkpt lat="43.88653" lon="3.67492">
        <ele>482.24</ele>
        <time>2014-06-08T12:19:35Z</time>
      </trkpt>
      <trkpt lat="43.88666" lon="3.67504">
        <ele>481.76</ele>
        <time>2014-06-08T12:19:49Z</time>
      </trkpt>
      <trkpt lat="43.8868" lon="3.67518">
        <ele>478.39</ele>
        <time>2014-06-08T12:20:04Z</time>
      </trkpt>
      <trkpt lat="43.88698" lon="3.67524">
        <ele>475.99</ele>
        <time>2014-06-08T12:20:19Z</time>
      </trkpt>
      <trkpt lat="43.88715" lon="3.67525">
        <ele>476.47</ele>
        <time>2014-06-08T12:20:32Z</time>
      </trkpt>
      <trkpt lat="43.88734" lon="3.67538">
        <ele>477.43</ele>
        <time>2014-06-08T12:20:48Z</time>
      </trkpt>
      <trkpt lat="43.8874" lon="3.67549">
        <ele>477.91</ele>
        <time>2014-06-08T12:20:56Z</time>
      </trkpt>
      <trkpt lat="43.8875" lon="3.67572">
        <ele>476.47</ele>
        <time>2014-06-08T12:21:11Z</time>
      </trkpt>
      <trkpt lat="43.88762" lon="3.67587">
        <ele>475.99</ele>
        <time>2014-06-08T12:21:24Z</time>
      </trkpt>
      <trkpt lat="43.88778" lon="3.67602">
        <ele>475.99</ele>
        <time>2014-06-08T12:21:39Z</time>
      </trkpt>
      <trkpt lat="43.88793" lon="3.67614">
        <ele>477.91</ele>
        <time>2014-06-08T12:21:53Z</time>
      </trkpt>
      <trkpt lat="43.88812" lon="3.6762">
        <ele>479.35</ele>
        <time>2014-06-08T12:22:10Z</time>
      </trkpt>
      <trkpt lat="43.88826" lon="3.67618">
        <ele>478.87</ele>
        <time>2014-06-08T12:22:22Z</time>
      </trkpt>
      <trkpt lat="43.88839" lon="3.67612">
        <ele>479.35</ele>
        <time>2014-06-08T12:22:39Z</time>
      </trkpt>
      <trkpt lat="43.88841" lon="3.67611">
        <ele>479.35</ele>
        <time>2014-06-08T12:22:40Z</time>
      </trkpt>
      <trkpt lat="43.88856" lon="3.67603">
        <ele>477.43</ele>
        <time>2014-06-08T12:22:55Z</time>
      </trkpt>
      <trkpt lat="43.88866" lon="3.67599">
        <ele>476.47</ele>
        <time>2014-06-08T12:23:09Z</time>
      </trkpt>
      <trkpt lat="43.88868" lon="3.67601">
        <ele>475.51</ele>
        <time>2014-06-08T12:23:22Z</time>
      </trkpt>
      <trkpt lat="43.88868" lon="3.67601">
        <ele>475.51</ele>
        <time>2014-06-08T12:23:23Z</time>
      </trkpt>
      <trkpt lat="43.88866" lon="3.67602">
        <ele>475.99</ele>
        <time>2014-06-08T12:23:25Z</time>
      </trkpt>
      <trkpt lat="43.88849" lon="3.6761">
        <ele>476.47</ele>
        <time>2014-06-08T12:23:41Z</time>
      </trkpt>
      <trkpt lat="43.88846" lon="3.67614">
        <ele>475.99</ele>
        <time>2014-06-08T12:23:45Z</time>
      </trkpt>
      <trkpt lat="43.88845" lon="3.67632">
        <ele>475.03</ele>
        <time>2014-06-08T12:23:59Z</time>
      </trkpt>
      <trkpt lat="43.88855" lon="3.67654">
        <ele>473.59</ele>
        <time>2014-06-08T12:24:17Z</time>
      </trkpt>
      <trkpt lat="43.88859" lon="3.67665">
        <ele>473.11</ele>
        <time>2014-06-08T12:24:24Z</time>
      </trkpt>
      <trkpt lat="43.88869" lon="3.67695">
        <ele>475.51</ele>
        <time>2014-06-08T12:24:42Z</time>
      </trkpt>
      <trkpt lat="43.88872" lon="3.67715">
        <ele>475.03</ele>
        <time>2014-06-08T12:24:56Z</time>
      </trkpt>
      <trkpt lat="43.88866" lon="3.67739">
        <ele>473.59</ele>
        <time>2014-06-08T12:25:12Z</time>
      </trkpt>
      <trkpt lat="43.88865" lon="3.67745">
        <ele>473.59</ele>
        <time>2014-06-08T12:25:15Z</time>
      </trkpt>
      <trkpt lat="43.88859" lon="3.67769">
        <ele>474.07</ele>
        <time>2014-06-08T12:25:29Z</time>
      </trkpt>
      <trkpt lat="43.88845" lon="3.67789">
        <ele>477.43</ele>
        <time>2014-06-08T12:25:44Z</time>
      </trkpt>
      <trkpt lat="43.88837" lon="3.67808">
        <ele>478.39</ele>
        <time>2014-06-08T12:25:57Z</time>
      </trkpt>
      <trkpt lat="43.88831" lon="3.6783">
        <ele>476.95</ele>
        <time>2014-06-08T12:26:11Z</time>
      </trkpt>
      <trkpt lat="43.88831" lon="3.67836">
        <ele>476.47</ele>
        <time>2014-06-08T12:26:14Z</time>
      </trkpt>
      <trkpt lat="43.88831" lon="3.67839">
        <ele>476.47</ele>
        <time>2014-06-08T12:26:16Z</time>
      </trkpt>
      <trkpt lat="43.88844" lon="3.67859">
        <ele>475.99</ele>
        <time>2014-06-08T12:26:33Z</time>
      </trkpt>
      <trkpt lat="43.88852" lon="3.67868">
        <ele>474.55</ele>
        <time>2014-06-08T12:26:49Z</time>
      </trkpt>
      <trkpt lat="43.88852" lon="3.67872">
        <ele>475.03</ele>
        <time>2014-06-08T12:26:52Z</time>
      </trkpt>
      <trkpt lat="43.8884" lon="3.67888">
        <ele>474.07</ele>
        <time>2014-06-08T12:27:08Z</time>
      </trkpt>
      <trkpt lat="43.88838" lon="3.67889">
        <ele>474.55</ele>
        <time>2014-06-08T12:27:10Z</time>
      </trkpt>
      <trkpt lat="43.88836" lon="3.6789">
        <ele>475.03</ele>
        <time>2014-06-08T12:27:12Z</time>
      </trkpt>
      <trkpt lat="43.88825" lon="3.67908">
        <ele>471.66</ele>
        <time>2014-06-08T12:27:26Z</time>
      </trkpt>
      <trkpt lat="43.88822" lon="3.67918">
        <ele>471.18</ele>
        <time>2014-06-08T12:27:34Z</time>
      </trkpt>
      <trkpt lat="43.88832" lon="3.67933">
        <ele>470.22</ele>
        <time>2014-06-08T12:27:48Z</time>
      </trkpt>
      <trkpt lat="43.8884" lon="3.67947">
        <ele>469.26</ele>
        <time>2014-06-08T12:28:03Z</time>
      </trkpt>
      <trkpt lat="43.88843" lon="3.67953">
        <ele>467.82</ele>
        <time>2014-06-08T12:28:16Z</time>
      </trkpt>
      <trkpt lat="43.88858" lon="3.67963">
        <ele>465.9</ele>
        <time>2014-06-08T12:28:32Z</time>
      </trkpt>
      <trkpt lat="43.88865" lon="3.67967">
        <ele>465.42</ele>
        <time>2014-06-08T12:28:39Z</time>
      </trkpt>
      <trkpt lat="43.88871" lon="3.6796">
        <ele>464.93</ele>
        <time>2014-06-08T12:28:46Z</time>
      </trkpt>
      <trkpt lat="43.88872" lon="3.67953">
        <ele>466.38</ele>
        <time>2014-06-08T12:29:02Z</time>
      </trkpt>
      <trkpt lat="43.88873" lon="3.6795">
        <ele>466.38</ele>
        <time>2014-06-08T12:29:09Z</time>
      </trkpt>
      <trkpt lat="43.88887" lon="3.67934">
        <ele>468.78</ele>
        <time>2014-06-08T12:29:27Z</time>
      </trkpt>
      <trkpt lat="43.88889" lon="3.67928">
        <ele>468.78</ele>
        <time>2014-06-08T12:29:31Z</time>
      </trkpt>
      <trkpt lat="43.889" lon="3.67925">
        <ele>469.26</ele>
        <time>2014-06-08T12:29:40Z</time>
      </trkpt>
      <trkpt lat="43.88904" lon="3.67926">
        <ele>468.78</ele>
        <time>2014-06-08T12:29:43Z</time>
      </trkpt>
      <trkpt lat="43.88915" lon="3.67925">
        <ele>467.34</ele>
        <time>2014-06-08T12:29:54Z</time>
      </trkpt>
      <trkpt lat="43.88919" lon="3.67928">
        <ele>465.9</ele>
        <time>2014-06-08T12:29:58Z</time>
      </trkpt>
      <trkpt lat="43.88932" lon="3.67924">
        <ele>464.93</ele>
        <time>2014-06-08T12:30:11Z</time>
      </trkpt>
      <trkpt lat="43.88935" lon="3.67927">
        <ele>463.01</ele>
        <time>2014-06-08T12:30:15Z</time>
      </trkpt>
      <trkpt lat="43.8894" lon="3.67927">
        <ele>461.57</ele>
        <time>2014-06-08T12:30:20Z</time>
      </trkpt>
      <trkpt lat="43.88946" lon="3.67923">
        <ele>462.05</ele>
        <time>2014-06-08T12:30:25Z</time>
      </trkpt>
      <trkpt lat="43.8895" lon="3.67921">
        <ele>462.05</ele>
        <time>2014-06-08T12:30:29Z</time>
      </trkpt>
      <trkpt lat="43.88956" lon="3.67917">
        <ele>461.57</ele>
        <time>2014-06-08T12:30:35Z</time>
      </trkpt>
      <trkpt lat="43.88973" lon="3.67918">
        <ele>460.61</ele>
        <time>2014-06-08T12:30:50Z</time>
      </trkpt>
      <trkpt lat="43.88983" lon="3.67916">
        <ele>460.61</ele>
        <time>2014-06-08T12:31:00Z</time>
      </trkpt>
      <trkpt lat="43.88986" lon="3.67917">
        <ele>460.13</ele>
        <time>2014-06-08T12:31:02Z</time>
      </trkpt>
      <trkpt lat="43.88998" lon="3.6792">
        <ele>457.72</ele>
        <time>2014-06-08T12:31:14Z</time>
      </trkpt>
      <trkpt lat="43.89012" lon="3.67919">
        <ele>456.76</ele>
        <time>2014-06-08T12:31:26Z</time>
      </trkpt>
      <trkpt lat="43.8903" lon="3.67926">
        <ele>454.36</ele>
        <time>2014-06-08T12:31:44Z</time>
      </trkpt>
      <trkpt lat="43.89046" lon="3.67919">
        <ele>453.88</ele>
        <time>2014-06-08T12:31:58Z</time>
      </trkpt>
      <trkpt lat="43.89048" lon="3.67918">
        <ele>453.88</ele>
        <time>2014-06-08T12:31:59Z</time>
      </trkpt>
      <trkpt lat="43.89057" lon="3.6791">
        <ele>454.36</ele>
        <time>2014-06-08T12:32:08Z</time>
      </trkpt>
      <trkpt lat="43.89073" lon="3.6792">
        <ele>453.4</ele>
        <time>2014-06-08T12:32:26Z</time>
      </trkpt>
      <trkpt lat="43.8908" lon="3.67919">
        <ele>451.96</ele>
        <time>2014-06-08T12:32:32Z</time>
      </trkpt>
      <trkpt lat="43.89084" lon="3.67912">
        <ele>451.96</ele>
        <time>2014-06-08T12:32:38Z</time>
      </trkpt>
      <trkpt lat="43.89099" lon="3.67905">
        <ele>452.92</ele>
        <time>2014-06-08T12:32:54Z</time>
      </trkpt>
      <trkpt lat="43.89116" lon="3.67898">
        <ele>452.44</ele>
        <time>2014-06-08T12:33:10Z</time>
      </trkpt>
      <trkpt lat="43.89132" lon="3.67892">
        <ele>451.96</ele>
        <time>2014-06-08T12:33:26Z</time>
      </trkpt>
      <trkpt lat="43.89142" lon="3.67895">
        <ele>450.03</ele>
        <time>2014-06-08T12:33:36Z</time>
      </trkpt>
      <trkpt lat="43.89161" lon="3.67888">
        <ele>447.15</ele>
        <time>2014-06-08T12:33:51Z</time>
      </trkpt>
      <trkpt lat="43.89177" lon="3.67884">
        <ele>446.19</ele>
        <time>2014-06-08T12:34:06Z</time>
      </trkpt>
      <trkpt lat="43.89191" lon="3.67878">
        <ele>445.23</ele>
        <time>2014-06-08T12:34:18Z</time>
      </trkpt>
      <trkpt lat="43.8921" lon="3.67859">
        <ele>443.31</ele>
        <time>2014-06-08T12:34:37Z</time>
      </trkpt>
      <trkpt lat="43.89224" lon="3.67857">
        <ele>443.31</ele>
        <time>2014-06-08T12:34:51Z</time>
      </trkpt>
      <trkpt lat="43.89233" lon="3.67867">
        <ele>438.98</ele>
        <time>2014-06-08T12:35:09Z</time>
      </trkpt>
      <trkpt lat="43.89238" lon="3.67875">
        <ele>437.06</ele>
        <time>2014-06-08T12:35:22Z</time>
      </trkpt>
      <trkpt lat="43.89245" lon="3.679">
        <ele>432.25</ele>
        <time>2014-06-08T12:35:40Z</time>
      </trkpt>
      <trkpt lat="43.89243" lon="3.67936">
        <ele>426.96</ele>
        <time>2014-06-08T12:36:01Z</time>
      </trkpt>
      <trkpt lat="43.89243" lon="3.67964">
        <ele>420.71</ele>
        <time>2014-06-08T12:36:19Z</time>
      </trkpt>
      <trkpt lat="43.89236" lon="3.67985">
        <ele>414.95</ele>
        <time>2014-06-08T12:36:38Z</time>
      </trkpt>
      <trkpt lat="43.89255" lon="3.68003">
        <ele>411.58</ele>
        <time>2014-06-08T12:36:56Z</time>
      </trkpt>
      <trkpt lat="43.89269" lon="3.68004">
        <ele>411.1</ele>
        <time>2014-06-08T12:37:12Z</time>
      </trkpt>
      <trkpt lat="43.89273" lon="3.68004">
        <ele>411.1</ele>
        <time>2014-06-08T12:37:21Z</time>
      </trkpt>
      <trkpt lat="43.89299" lon="3.68009">
        <ele>414.47</ele>
        <time>2014-06-08T12:37:41Z</time>
      </trkpt>
      <trkpt lat="43.89323" lon="3.67994">
        <ele>419.27</ele>
        <time>2014-06-08T12:38:01Z</time>
      </trkpt>
      <trkpt lat="43.89343" lon="3.67988">
        <ele>420.71</ele>
        <time>2014-06-08T12:38:19Z</time>
      </trkpt>
      <trkpt lat="43.89344" lon="3.67989">
        <ele>420.71</ele>
        <time>2014-06-08T12:38:20Z</time>
      </trkpt>
      <trkpt lat="43.8936" lon="3.68016">
        <ele>422.64</ele>
        <time>2014-06-08T12:38:39Z</time>
      </trkpt>
      <trkpt lat="43.89378" lon="3.68031">
        <ele>423.6</ele>
        <time>2014-06-08T12:38:56Z</time>
      </trkpt>
      <trkpt lat="43.89403" lon="3.68039">
        <ele>423.6</ele>
        <time>2014-06-08T12:39:16Z</time>
      </trkpt>
      <trkpt lat="43.89421" lon="3.68036">
        <ele>422.16</ele>
        <time>2014-06-08T12:39:30Z</time>
      </trkpt>
      <trkpt lat="43.89446" lon="3.68024">
        <ele>421.68</ele>
        <time>2014-06-08T12:39:50Z</time>
      </trkpt>
      <trkpt lat="43.89466" lon="3.68003">
        <ele>420.23</ele>
        <time>2014-06-08T12:40:09Z</time>
      </trkpt>
      <trkpt lat="43.89488" lon="3.67994">
        <ele>417.83</ele>
        <time>2014-06-08T12:40:25Z</time>
      </trkpt>
      <trkpt lat="43.89512" lon="3.67997">
        <ele>416.39</ele>
        <time>2014-06-08T12:40:42Z</time>
      </trkpt>
      <trkpt lat="43.89533" lon="3.67995">
        <ele>414.47</ele>
        <time>2014-06-08T12:40:57Z</time>
      </trkpt>
      <trkpt lat="43.89562" lon="3.67997">
        <ele>413.5</ele>
        <time>2014-06-08T12:41:17Z</time>
      </trkpt>
      <trkpt lat="43.89585" lon="3.68025">
        <ele>416.87</ele>
        <time>2014-06-08T12:41:36Z</time>
      </trkpt>
      <trkpt lat="43.89609" lon="3.6805">
        <ele>420.71</ele>
        <time>2014-06-08T12:41:56Z</time>
      </trkpt>
      <trkpt lat="43.89632" lon="3.68056">
        <ele>422.64</ele>
        <time>2014-06-08T12:42:14Z</time>
      </trkpt>
      <trkpt lat="43.89653" lon="3.68049">
        <ele>423.6</ele>
        <time>2014-06-08T12:42:30Z</time>
      </trkpt>
      <trkpt lat="43.89682" lon="3.6804">
        <ele>422.16</ele>
        <time>2014-06-08T12:42:51Z</time>
      </trkpt>
      <trkpt lat="43.89715" lon="3.68026">
        <ele>419.27</ele>
        <time>2014-06-08T12:43:15Z</time>
      </trkpt>
      <trkpt lat="43.89745" lon="3.68014">
        <ele>415.43</ele>
        <time>2014-06-08T12:43:37Z</time>
      </trkpt>
      <trkpt lat="43.89772" lon="3.67996">
        <ele>411.58</ele>
        <time>2014-06-08T12:43:56Z</time>
      </trkpt>
      <trkpt lat="43.89791" lon="3.67974">
        <ele>407.74</ele>
        <time>2014-06-08T12:44:15Z</time>
      </trkpt>
      <trkpt lat="43.89811" lon="3.67953">
        <ele>404.85</ele>
        <time>2014-06-08T12:44:34Z</time>
      </trkpt>
      <trkpt lat="43.89839" lon="3.6794">
        <ele>402.45</ele>
        <time>2014-06-08T12:44:54Z</time>
      </trkpt>
      <trkpt lat="43.89864" lon="3.67935">
        <ele>401.49</ele>
        <time>2014-06-08T12:45:14Z</time>
      </trkpt>
      <trkpt lat="43.89897" lon="3.67926">
        <ele>397.16</ele>
        <time>2014-06-08T12:45:38Z</time>
      </trkpt>
      <trkpt lat="43.89917" lon="3.67918">
        <ele>398.12</ele>
        <time>2014-06-08T12:45:52Z</time>
      </trkpt>
      <trkpt lat="43.89937" lon="3.6792">
        <ele>395.72</ele>
        <time>2014-06-08T12:46:06Z</time>
      </trkpt>
      <trkpt lat="43.89963" lon="3.67926">
        <ele>393.32</ele>
        <time>2014-06-08T12:46:26Z</time>
      </trkpt>
      <trkpt lat="43.89995" lon="3.67936">
        <ele>388.51</ele>
        <time>2014-06-08T12:46:48Z</time>
      </trkpt>
      <trkpt lat="43.90025" lon="3.67945">
        <ele>383.7</ele>
        <time>2014-06-08T12:47:08Z</time>
      </trkpt>
      <trkpt lat="43.9006" lon="3.67944">
        <ele>380.34</ele>
        <time>2014-06-08T12:47:31Z</time>
      </trkpt>
      <trkpt lat="43.90088" lon="3.67941">
        <ele>376.01</ele>
        <time>2014-06-08T12:47:51Z</time>
      </trkpt>
      <trkpt lat="43.90116" lon="3.67946">
        <ele>373.61</ele>
        <time>2014-06-08T12:48:10Z</time>
      </trkpt>
      <trkpt lat="43.90138" lon="3.67928">
        <ele>371.69</ele>
        <time>2014-06-08T12:48:28Z</time>
      </trkpt>
      <trkpt lat="43.90156" lon="3.67905">
        <ele>367.84</ele>
        <time>2014-06-08T12:48:47Z</time>
      </trkpt>
      <trkpt lat="43.90159" lon="3.679">
        <ele>365.44</ele>
        <time>2014-06-08T12:49:10Z</time>
      </trkpt>
      <trkpt lat="43.90155" lon="3.67897">
        <ele>364</ele>
        <time>2014-06-08T12:49:21Z</time>
      </trkpt>
      <trkpt lat="43.90148" lon="3.67893">
        <ele>373.13</ele>
        <time>2014-06-08T12:49:36Z</time>
      </trkpt>
      <trkpt lat="43.90148" lon="3.67894">
        <ele>375.05</ele>
        <time>2014-06-08T12:50:08Z</time>
      </trkpt>
      <trkpt lat="43.90147" lon="3.67895">
        <ele>376.97</ele>
        <time>2014-06-08T12:50:34Z</time>
      </trkpt>
      <trkpt lat="43.90147" lon="3.67893">
        <ele>376.01</ele>
        <time>2014-06-08T12:51:03Z</time>
      </trkpt>
      <trkpt lat="43.90147" lon="3.67891">
        <ele>375.05</ele>
        <time>2014-06-08T12:51:27Z</time>
      </trkpt>
      <trkpt lat="43.90144" lon="3.67886">
        <ele>374.57</ele>
        <time>2014-06-08T12:51:45Z</time>
      </trkpt>
      <trkpt lat="43.90135" lon="3.67866">
        <ele>373.13</ele>
        <time>2014-06-08T12:52:00Z</time>
      </trkpt>
      <trkpt lat="43.90117" lon="3.6783">
        <ele>369.28</ele>
        <time>2014-06-08T12:52:23Z</time>
      </trkpt>
      <trkpt lat="43.901" lon="3.67808">
        <ele>364.96</ele>
        <time>2014-06-08T12:52:45Z</time>
      </trkpt>
      <trkpt lat="43.90072" lon="3.67772">
        <ele>362.07</ele>
        <time>2014-06-08T12:53:09Z</time>
      </trkpt>
      <trkpt lat="43.90048" lon="3.67748">
        <ele>359.19</ele>
        <time>2014-06-08T12:53:31Z</time>
      </trkpt>
      <trkpt lat="43.90022" lon="3.67717">
        <ele>358.23</ele>
        <time>2014-06-08T12:53:52Z</time>
      </trkpt>
      <trkpt lat="43.9" lon="3.67701">
        <ele>354.38</ele>
        <time>2014-06-08T12:54:12Z</time>
      </trkpt>
      <trkpt lat="43.89975" lon="3.67674">
        <ele>356.31</ele>
        <time>2014-06-08T12:54:33Z</time>
      </trkpt>
      <trkpt lat="43.89949" lon="3.67642">
        <ele>356.31</ele>
        <time>2014-06-08T12:54:56Z</time>
      </trkpt>
      <trkpt lat="43.89926" lon="3.67618">
        <ele>354.86</ele>
        <time>2014-06-08T12:55:16Z</time>
      </trkpt>
      <trkpt lat="43.89897" lon="3.67596">
        <ele>350.54</ele>
        <time>2014-06-08T12:55:39Z</time>
      </trkpt>
      <trkpt lat="43.8987" lon="3.67571">
        <ele>353.42</ele>
        <time>2014-06-08T12:55:58Z</time>
      </trkpt>
      <trkpt lat="43.89852" lon="3.6754">
        <ele>357.27</ele>
        <time>2014-06-08T12:56:16Z</time>
      </trkpt>
      <trkpt lat="43.89842" lon="3.67514">
        <ele>358.23</ele>
        <time>2014-06-08T12:56:31Z</time>
      </trkpt>
      <trkpt lat="43.89826" lon="3.67487">
        <ele>356.31</ele>
        <time>2014-06-08T12:56:49Z</time>
      </trkpt>
      <trkpt lat="43.89809" lon="3.67443">
        <ele>351.98</ele>
        <time>2014-06-08T12:57:15Z</time>
      </trkpt>
      <trkpt lat="43.89788" lon="3.67408">
        <ele>348.13</ele>
        <time>2014-06-08T12:57:37Z</time>
      </trkpt>
      <trkpt lat="43.89763" lon="3.67371">
        <ele>347.65</ele>
        <time>2014-06-08T12:57:58Z</time>
      </trkpt>
      <trkpt lat="43.89743" lon="3.67334">
        <ele>348.13</ele>
        <time>2014-06-08T12:58:21Z</time>
      </trkpt>
      <trkpt lat="43.89729" lon="3.673">
        <ele>345.73</ele>
        <time>2014-06-08T12:58:41Z</time>
      </trkpt>
      <trkpt lat="43.89714" lon="3.67255">
        <ele>346.69</ele>
        <time>2014-06-08T12:59:03Z</time>
      </trkpt>
      <trkpt lat="43.89701" lon="3.67206">
        <ele>350.54</ele>
        <time>2014-06-08T12:59:26Z</time>
      </trkpt>
      <trkpt lat="43.89697" lon="3.67167">
        <ele>351.5</ele>
        <time>2014-06-08T12:59:47Z</time>
      </trkpt>
      <trkpt lat="43.89688" lon="3.67123">
        <ele>351.5</ele>
        <time>2014-06-08T13:00:11Z</time>
      </trkpt>
      <trkpt lat="43.89668" lon="3.67086">
        <ele>351.02</ele>
        <time>2014-06-08T13:00:36Z</time>
      </trkpt>
      <trkpt lat="43.89647" lon="3.67039">
        <ele>349.1</ele>
        <time>2014-06-08T13:00:59Z</time>
      </trkpt>
      <trkpt lat="43.89635" lon="3.66999">
        <ele>350.06</ele>
        <time>2014-06-08T13:01:21Z</time>
      </trkpt>
      <trkpt lat="43.89623" lon="3.66956">
        <ele>349.58</ele>
        <time>2014-06-08T13:01:46Z</time>
      </trkpt>
      <trkpt lat="43.89612" lon="3.66909">
        <ele>348.13</ele>
        <time>2014-06-08T13:02:10Z</time>
      </trkpt>
      <trkpt lat="43.896" lon="3.66875">
        <ele>347.17</ele>
        <time>2014-06-08T13:02:34Z</time>
      </trkpt>
      <trkpt lat="43.89584" lon="3.6682">
        <ele>346.21</ele>
        <time>2014-06-08T13:02:58Z</time>
      </trkpt>
      <trkpt lat="43.89571" lon="3.66781">
        <ele>347.65</ele>
        <time>2014-06-08T13:03:20Z</time>
      </trkpt>
      <trkpt lat="43.8956" lon="3.66745">
        <ele>348.62</ele>
        <time>2014-06-08T13:03:43Z</time>
      </trkpt>
      <trkpt lat="43.89543" lon="3.66699">
        <ele>350.06</ele>
        <time>2014-06-08T13:04:09Z</time>
      </trkpt>
      <trkpt lat="43.89526" lon="3.66655">
        <ele>352.46</ele>
        <time>2014-06-08T13:04:34Z</time>
      </trkpt>
      <trkpt lat="43.8951" lon="3.6662">
        <ele>351.98</ele>
        <time>2014-06-08T13:04:57Z</time>
      </trkpt>
      <trkpt lat="43.89491" lon="3.66579">
        <ele>350.54</ele>
        <time>2014-06-08T13:05:19Z</time>
      </trkpt>
      <trkpt lat="43.89481" lon="3.66529">
        <ele>345.73</ele>
        <time>2014-06-08T13:05:43Z</time>
      </trkpt>
      <trkpt lat="43.89473" lon="3.66492">
        <ele>343.33</ele>
        <time>2014-06-08T13:06:03Z</time>
      </trkpt>
      <trkpt lat="43.89468" lon="3.66456">
        <ele>343.33</ele>
        <time>2014-06-08T13:06:23Z</time>
      </trkpt>
      <trkpt lat="43.89461" lon="3.66419">
        <ele>342.85</ele>
        <time>2014-06-08T13:06:44Z</time>
      </trkpt>
      <trkpt lat="43.89443" lon="3.66383">
        <ele>344.29</ele>
        <time>2014-06-08T13:07:07Z</time>
      </trkpt>
      <trkpt lat="43.89421" lon="3.66348">
        <ele>345.73</ele>
        <time>2014-06-08T13:07:34Z</time>
      </trkpt>
      <trkpt lat="43.89418" lon="3.66343">
        <ele>345.25</ele>
        <time>2014-06-08T13:07:36Z</time>
      </trkpt>
      <trkpt lat="43.89394" lon="3.66308">
        <ele>346.69</ele>
        <time>2014-06-08T13:07:54Z</time>
      </trkpt>
      <trkpt lat="43.89385" lon="3.66283">
        <ele>347.17</ele>
        <time>2014-06-08T13:08:10Z</time>
      </trkpt>
      <trkpt lat="43.89381" lon="3.66269">
        <ele>347.65</ele>
        <time>2014-06-08T13:08:18Z</time>
      </trkpt>
      <trkpt lat="43.89373" lon="3.66242">
        <ele>348.13</ele>
        <time>2014-06-08T13:08:33Z</time>
      </trkpt>
      <trkpt lat="43.89364" lon="3.66213">
        <ele>348.62</ele>
        <time>2014-06-08T13:08:49Z</time>
      </trkpt>
      <trkpt lat="43.89356" lon="3.6618">
        <ele>345.73</ele>
        <time>2014-06-08T13:09:07Z</time>
      </trkpt>
      <trkpt lat="43.89349" lon="3.66153">
        <ele>342.37</ele>
        <time>2014-06-08T13:09:22Z</time>
      </trkpt>
      <trkpt lat="43.89336" lon="3.66116">
        <ele>340.92</ele>
        <time>2014-06-08T13:09:43Z</time>
      </trkpt>
      <trkpt lat="43.89324" lon="3.6609">
        <ele>339.96</ele>
        <time>2014-06-08T13:09:59Z</time>
      </trkpt>
      <trkpt lat="43.89314" lon="3.66063">
        <ele>339.48</ele>
        <time>2014-06-08T13:10:15Z</time>
      </trkpt>
      <trkpt lat="43.89307" lon="3.66037">
        <ele>336.6</ele>
        <time>2014-06-08T13:10:30Z</time>
      </trkpt>
      <trkpt lat="43.893" lon="3.66005">
        <ele>336.12</ele>
        <time>2014-06-08T13:10:47Z</time>
      </trkpt>
      <trkpt lat="43.89293" lon="3.65964">
        <ele>335.64</ele>
        <time>2014-06-08T13:11:09Z</time>
      </trkpt>
      <trkpt lat="43.89285" lon="3.65907">
        <ele>336.6</ele>
        <time>2014-06-08T13:11:33Z</time>
      </trkpt>
      <trkpt lat="43.89274" lon="3.65872">
        <ele>338.04</ele>
        <time>2014-06-08T13:11:48Z</time>
      </trkpt>
      <trkpt lat="43.89268" lon="3.6584">
        <ele>342.37</ele>
        <time>2014-06-08T13:12:03Z</time>
      </trkpt>
      <trkpt lat="43.89265" lon="3.65807">
        <ele>339.48</ele>
        <time>2014-06-08T13:12:22Z</time>
      </trkpt>
      <trkpt lat="43.89257" lon="3.65757">
        <ele>335.16</ele>
        <time>2014-06-08T13:12:46Z</time>
      </trkpt>
      <trkpt lat="43.89248" lon="3.65713">
        <ele>329.87</ele>
        <time>2014-06-08T13:13:08Z</time>
      </trkpt>
      <trkpt lat="43.89239" lon="3.65668">
        <ele>324.1</ele>
        <time>2014-06-08T13:13:32Z</time>
      </trkpt>
      <trkpt lat="43.8923" lon="3.65631">
        <ele>322.66</ele>
        <time>2014-06-08T13:13:51Z</time>
      </trkpt>
      <trkpt lat="43.89219" lon="3.65594">
        <ele>323.14</ele>
        <time>2014-06-08T13:14:10Z</time>
      </trkpt>
      <trkpt lat="43.89212" lon="3.65559">
        <ele>318.33</ele>
        <time>2014-06-08T13:14:32Z</time>
      </trkpt>
      <trkpt lat="43.892" lon="3.65508">
        <ele>318.33</ele>
        <time>2014-06-08T13:14:54Z</time>
      </trkpt>
      <trkpt lat="43.89187" lon="3.6547">
        <ele>313.53</ele>
        <time>2014-06-08T13:15:14Z</time>
      </trkpt>
      <trkpt lat="43.89172" lon="3.65429">
        <ele>318.33</ele>
        <time>2014-06-08T13:15:35Z</time>
      </trkpt>
      <trkpt lat="43.89156" lon="3.65389">
        <ele>316.41</ele>
        <time>2014-06-08T13:16:01Z</time>
      </trkpt>
      <trkpt lat="43.89149" lon="3.65353">
        <ele>318.33</ele>
        <time>2014-06-08T13:16:21Z</time>
      </trkpt>
      <trkpt lat="43.89148" lon="3.6536">
        <ele>317.37</ele>
        <time>2014-06-08T13:16:41Z</time>
      </trkpt>
      <trkpt lat="43.89146" lon="3.65346">
        <ele>315.93</ele>
        <time>2014-06-08T13:16:59Z</time>
      </trkpt>
      <trkpt lat="43.89145" lon="3.65354">
        <ele>318.33</ele>
        <time>2014-06-08T13:17:19Z</time>
      </trkpt>
      <trkpt lat="43.89147" lon="3.65359">
        <ele>314.49</ele>
        <time>2014-06-08T13:17:41Z</time>
      </trkpt>
      <trkpt lat="43.89147" lon="3.6536">
        <ele>316.41</ele>
        <time>2014-06-08T13:18:07Z</time>
      </trkpt>
      <trkpt lat="43.89146" lon="3.65361">
        <ele>324.1</ele>
        <time>2014-06-08T13:18:24Z</time>
      </trkpt>
      <trkpt lat="43.89146" lon="3.65358">
        <ele>327.47</ele>
        <time>2014-06-08T13:18:48Z</time>
      </trkpt>
      <trkpt lat="43.89144" lon="3.65356">
        <ele>330.35</ele>
        <time>2014-06-08T13:19:05Z</time>
      </trkpt>
      <trkpt lat="43.89144" lon="3.65357">
        <ele>329.87</ele>
        <time>2014-06-08T13:19:40Z</time>
      </trkpt>
      <trkpt lat="43.89146" lon="3.65358">
        <ele>332.75</ele>
        <time>2014-06-08T13:20:07Z</time>
      </trkpt>
      <trkpt lat="43.89146" lon="3.65356">
        <ele>331.79</ele>
        <time>2014-06-08T13:20:31Z</time>
      </trkpt>
      <trkpt lat="43.89146" lon="3.65356">
        <ele>330.83</ele>
        <time>2014-06-08T13:20:57Z</time>
      </trkpt>
      <trkpt lat="43.89146" lon="3.65356">
        <ele>329.87</ele>
        <time>2014-06-08T13:21:19Z</time>
      </trkpt>
      <trkpt lat="43.89146" lon="3.65358">
        <ele>328.43</ele>
        <time>2014-06-08T13:21:40Z</time>
      </trkpt>
      <trkpt lat="43.89151" lon="3.65354">
        <ele>328.43</ele>
        <time>2014-06-08T13:22:00Z</time>
      </trkpt>
      <trkpt lat="43.89149" lon="3.65349">
        <ele>327.95</ele>
        <time>2014-06-08T13:22:30Z</time>
      </trkpt>
      <trkpt lat="43.89146" lon="3.65359">
        <ele>324.1</ele>
        <time>2014-06-08T13:22:52Z</time>
      </trkpt>
      <trkpt lat="43.89141" lon="3.6537">
        <ele>320.74</ele>
        <time>2014-06-08T13:23:15Z</time>
      </trkpt>
      <trkpt lat="43.89153" lon="3.65353">
        <ele>329.87</ele>
        <time>2014-06-08T13:23:32Z</time>
      </trkpt>
      <trkpt lat="43.89146" lon="3.65352">
        <ele>328.91</ele>
        <time>2014-06-08T13:23:51Z</time>
      </trkpt>
      <trkpt lat="43.89152" lon="3.65349">
        <ele>327.47</ele>
        <time>2014-06-08T13:24:16Z</time>
      </trkpt>
      <trkpt lat="43.89149" lon="3.65351">
        <ele>328.43</ele>
        <time>2014-06-08T13:24:36Z</time>
      </trkpt>
      <trkpt lat="43.89148" lon="3.65356">
        <ele>328.43</ele>
        <time>2014-06-08T13:24:56Z</time>
      </trkpt>
      <trkpt lat="43.89146" lon="3.65358">
        <ele>325.54</ele>
        <time>2014-06-08T13:25:31Z</time>
      </trkpt>
      <trkpt lat="43.89145" lon="3.65359">
        <ele>329.87</ele>
        <time>2014-06-08T13:25:51Z</time>
      </trkpt>
      <trkpt lat="43.89144" lon="3.65354">
        <ele>329.87</ele>
        <time>2014-06-08T13:26:14Z</time>
      </trkpt>
      <trkpt lat="43.89144" lon="3.65354">
        <ele>330.35</ele>
        <time>2014-06-08T13:26:37Z</time>
      </trkpt>
      <trkpt lat="43.89144" lon="3.65356">
        <ele>331.31</ele>
        <time>2014-06-08T13:27:10Z</time>
      </trkpt>
      <trkpt lat="43.89146" lon="3.65355">
        <ele>333.23</ele>
        <time>2014-06-08T13:27:31Z</time>
      </trkpt>
      <trkpt lat="43.89143" lon="3.65353">
        <ele>334.2</ele>
        <time>2014-06-08T13:27:47Z</time>
      </trkpt>
      <trkpt lat="43.89136" lon="3.65333">
        <ele>334.68</ele>
        <time>2014-06-08T13:28:07Z</time>
      </trkpt>
      <trkpt lat="43.89128" lon="3.65312">
        <ele>336.6</ele>
        <time>2014-06-08T13:28:22Z</time>
      </trkpt>
      <trkpt lat="43.89115" lon="3.65277">
        <ele>338.52</ele>
        <time>2014-06-08T13:28:42Z</time>
      </trkpt>
      <trkpt lat="43.89101" lon="3.65232">
        <ele>338.52</ele>
        <time>2014-06-08T13:29:05Z</time>
      </trkpt>
      <trkpt lat="43.89088" lon="3.65195">
        <ele>338.04</ele>
        <time>2014-06-08T13:29:27Z</time>
      </trkpt>
      <trkpt lat="43.89081" lon="3.65161">
        <ele>333.71</ele>
        <time>2014-06-08T13:29:48Z</time>
      </trkpt>
      <trkpt lat="43.89071" lon="3.65138">
        <ele>331.79</ele>
        <time>2014-06-08T13:30:06Z</time>
      </trkpt>
      <trkpt lat="43.89057" lon="3.65102">
        <ele>332.27</ele>
        <time>2014-06-08T13:30:30Z</time>
      </trkpt>
      <trkpt lat="43.89046" lon="3.65062">
        <ele>334.2</ele>
        <time>2014-06-08T13:30:56Z</time>
      </trkpt>
      <trkpt lat="43.89031" lon="3.65028">
        <ele>333.71</ele>
        <time>2014-06-08T13:31:23Z</time>
      </trkpt>
      <trkpt lat="43.89034" lon="3.65">
        <ele>337.56</ele>
        <time>2014-06-08T13:31:44Z</time>
      </trkpt>
      <trkpt lat="43.89036" lon="3.64976">
        <ele>340.44</ele>
        <time>2014-06-08T13:32:02Z</time>
      </trkpt>
      <trkpt lat="43.89036" lon="3.6496">
        <ele>339</ele>
        <time>2014-06-08T13:32:21Z</time>
      </trkpt>
      <trkpt lat="43.89024" lon="3.64932">
        <ele>336.12</ele>
        <time>2014-06-08T13:32:41Z</time>
      </trkpt>
      <trkpt lat="43.89005" lon="3.64918">
        <ele>331.31</ele>
        <time>2014-06-08T13:32:59Z</time>
      </trkpt>
      <trkpt lat="43.88986" lon="3.64889">
        <ele>326.5</ele>
        <time>2014-06-08T13:33:19Z</time>
      </trkpt>
      <trkpt lat="43.88999" lon="3.64871">
        <ele>325.54</ele>
        <time>2014-06-08T13:33:37Z</time>
      </trkpt>
      <trkpt lat="43.8902" lon="3.64861">
        <ele>331.31</ele>
        <time>2014-06-08T13:33:58Z</time>
      </trkpt>
      <trkpt lat="43.89021" lon="3.64825">
        <ele>334.2</ele>
        <time>2014-06-08T13:34:20Z</time>
      </trkpt>
      <trkpt lat="43.89019" lon="3.64789">
        <ele>336.12</ele>
        <time>2014-06-08T13:34:43Z</time>
      </trkpt>
      <trkpt lat="43.89014" lon="3.64756">
        <ele>339.48</ele>
        <time>2014-06-08T13:35:07Z</time>
      </trkpt>
      <trkpt lat="43.89013" lon="3.64728">
        <ele>345.25</ele>
        <time>2014-06-08T13:35:29Z</time>
      </trkpt>
      <trkpt lat="43.89008" lon="3.64702">
        <ele>351.98</ele>
        <time>2014-06-08T13:35:53Z</time>
      </trkpt>
      <trkpt lat="43.89009" lon="3.64675">
        <ele>354.38</ele>
        <time>2014-06-08T13:36:14Z</time>
      </trkpt>
      <trkpt lat="43.89007" lon="3.64648">
        <ele>355.83</ele>
        <time>2014-06-08T13:36:37Z</time>
      </trkpt>
      <trkpt lat="43.89006" lon="3.64623">
        <ele>357.75</ele>
        <time>2014-06-08T13:36:57Z</time>
      </trkpt>
      <trkpt lat="43.88997" lon="3.64597">
        <ele>361.59</ele>
        <time>2014-06-08T13:37:23Z</time>
      </trkpt>
      <trkpt lat="43.8899" lon="3.64563">
        <ele>366.88</ele>
        <time>2014-06-08T13:37:51Z</time>
      </trkpt>
      <trkpt lat="43.88986" lon="3.64535">
        <ele>371.21</ele>
        <time>2014-06-08T13:38:12Z</time>
      </trkpt>
      <trkpt lat="43.88987" lon="3.64526">
        <ele>372.65</ele>
        <time>2014-06-08T13:38:18Z</time>
      </trkpt>
      <trkpt lat="43.88983" lon="3.64508">
        <ele>381.3</ele>
        <time>2014-06-08T13:38:31Z</time>
      </trkpt>
      <trkpt lat="43.88974" lon="3.64488">
        <ele>383.7</ele>
        <time>2014-06-08T13:38:48Z</time>
      </trkpt>
      <trkpt lat="43.88965" lon="3.64468">
        <ele>387.07</ele>
        <time>2014-06-08T13:39:06Z</time>
      </trkpt>
      <trkpt lat="43.88965" lon="3.64459">
        <ele>387.55</ele>
        <time>2014-06-08T13:39:12Z</time>
      </trkpt>
      <trkpt lat="43.88965" lon="3.64438">
        <ele>388.99</ele>
        <time>2014-06-08T13:39:29Z</time>
      </trkpt>
      <trkpt lat="43.88966" lon="3.64437">
        <ele>388.99</ele>
        <time>2014-06-08T13:39:59Z</time>
      </trkpt>
      <trkpt lat="43.88959" lon="3.64436">
        <ele>388.99</ele>
        <time>2014-06-08T13:40:19Z</time>
      </trkpt>
      <trkpt lat="43.88936" lon="3.64425">
        <ele>390.43</ele>
        <time>2014-06-08T13:40:37Z</time>
      </trkpt>
      <trkpt lat="43.8893" lon="3.64421">
        <ele>390.43</ele>
        <time>2014-06-08T13:40:42Z</time>
      </trkpt>
      <trkpt lat="43.88907" lon="3.64392">
        <ele>395.24</ele>
        <time>2014-06-08T13:41:01Z</time>
      </trkpt>
      <trkpt lat="43.88881" lon="3.64379">
        <ele>396.2</ele>
        <time>2014-06-08T13:41:19Z</time>
      </trkpt>
      <trkpt lat="43.88862" lon="3.64355">
        <ele>400.53</ele>
        <time>2014-06-08T13:41:38Z</time>
      </trkpt>
      <trkpt lat="43.88844" lon="3.64332">
        <ele>400.05</ele>
        <time>2014-06-08T13:41:58Z</time>
      </trkpt>
      <trkpt lat="43.88825" lon="3.6431">
        <ele>402.93</ele>
        <time>2014-06-08T13:42:19Z</time>
      </trkpt>
      <trkpt lat="43.88808" lon="3.64286">
        <ele>402.93</ele>
        <time>2014-06-08T13:42:36Z</time>
      </trkpt>
      <trkpt lat="43.88799" lon="3.64254">
        <ele>408.22</ele>
        <time>2014-06-08T13:42:56Z</time>
      </trkpt>
      <trkpt lat="43.88793" lon="3.64218">
        <ele>408.7</ele>
        <time>2014-06-08T13:43:17Z</time>
      </trkpt>
      <trkpt lat="43.88779" lon="3.64199">
        <ele>406.29</ele>
        <time>2014-06-08T13:43:35Z</time>
      </trkpt>
      <trkpt lat="43.88756" lon="3.64176">
        <ele>401.49</ele>
        <time>2014-06-08T13:43:56Z</time>
      </trkpt>
      <trkpt lat="43.88727" lon="3.64146">
        <ele>395.72</ele>
        <time>2014-06-08T13:44:19Z</time>
      </trkpt>
      <trkpt lat="43.88708" lon="3.64122">
        <ele>393.8</ele>
        <time>2014-06-08T13:44:37Z</time>
      </trkpt>
      <trkpt lat="43.88683" lon="3.64088">
        <ele>393.8</ele>
        <time>2014-06-08T13:44:59Z</time>
      </trkpt>
      <trkpt lat="43.88656" lon="3.64066">
        <ele>390.43</ele>
        <time>2014-06-08T13:45:21Z</time>
      </trkpt>
      <trkpt lat="43.88636" lon="3.64042">
        <ele>392.36</ele>
        <time>2014-06-08T13:45:38Z</time>
      </trkpt>
      <trkpt lat="43.88613" lon="3.64021">
        <ele>388.03</ele>
        <time>2014-06-08T13:45:59Z</time>
      </trkpt>
      <trkpt lat="43.88603" lon="3.64012">
        <ele>387.07</ele>
        <time>2014-06-08T13:46:08Z</time>
      </trkpt>
      <trkpt lat="43.88575" lon="3.63984">
        <ele>388.03</ele>
        <time>2014-06-08T13:46:27Z</time>
      </trkpt>
      <trkpt lat="43.88556" lon="3.63969">
        <ele>391.39</ele>
        <time>2014-06-08T13:46:43Z</time>
      </trkpt>
      <trkpt lat="43.88538" lon="3.6395">
        <ele>389.95</ele>
        <time>2014-06-08T13:47:00Z</time>
      </trkpt>
      <trkpt lat="43.88519" lon="3.63932">
        <ele>389.95</ele>
        <time>2014-06-08T13:47:17Z</time>
      </trkpt>
      <trkpt lat="43.88499" lon="3.63919">
        <ele>388.51</ele>
        <time>2014-06-08T13:47:35Z</time>
      </trkpt>
      <trkpt lat="43.88474" lon="3.63899">
        <ele>389.95</ele>
        <time>2014-06-08T13:47:53Z</time>
      </trkpt>
      <trkpt lat="43.88458" lon="3.63876">
        <ele>392.36</ele>
        <time>2014-06-08T13:48:09Z</time>
      </trkpt>
      <trkpt lat="43.88437" lon="3.63853">
        <ele>395.24</ele>
        <time>2014-06-08T13:48:29Z</time>
      </trkpt>
      <trkpt lat="43.88417" lon="3.6384">
        <ele>395.24</ele>
        <time>2014-06-08T13:48:43Z</time>
      </trkpt>
      <trkpt lat="43.88407" lon="3.6383">
        <ele>401.49</ele>
        <time>2014-06-08T13:48:57Z</time>
      </trkpt>
      <trkpt lat="43.8839" lon="3.63825">
        <ele>402.45</ele>
        <time>2014-06-08T13:49:10Z</time>
      </trkpt>
      <trkpt lat="43.88368" lon="3.63811">
        <ele>401.01</ele>
        <time>2014-06-08T13:49:28Z</time>
      </trkpt>
      <trkpt lat="43.88353" lon="3.63798">
        <ele>400.53</ele>
        <time>2014-06-08T13:49:43Z</time>
      </trkpt>
      <trkpt lat="43.88348" lon="3.63784">
        <ele>397.16</ele>
        <time>2014-06-08T13:50:03Z</time>
      </trkpt>
      <trkpt lat="43.88347" lon="3.63784">
        <ele>403.41</ele>
        <time>2014-06-08T13:50:23Z</time>
      </trkpt>
      <trkpt lat="43.88348" lon="3.63784">
        <ele>405.33</ele>
        <time>2014-06-08T13:50:38Z</time>
      </trkpt>
      <trkpt lat="43.88347" lon="3.63773">
        <ele>407.74</ele>
        <time>2014-06-08T13:51:00Z</time>
      </trkpt>
      <trkpt lat="43.88346" lon="3.63762">
        <ele>408.22</ele>
        <time>2014-06-08T13:51:10Z</time>
      </trkpt>
      <trkpt lat="43.88339" lon="3.63737">
        <ele>407.26</ele>
        <time>2014-06-08T13:51:27Z</time>
      </trkpt>
      <trkpt lat="43.88334" lon="3.63715">
        <ele>408.7</ele>
        <time>2014-06-08T13:51:43Z</time>
      </trkpt>
      <trkpt lat="43.88328" lon="3.63677">
        <ele>409.18</ele>
        <time>2014-06-08T13:52:06Z</time>
      </trkpt>
      <trkpt lat="43.88326" lon="3.63657">
        <ele>410.14</ele>
        <time>2014-06-08T13:52:21Z</time>
      </trkpt>
      <trkpt lat="43.8834" lon="3.63629">
        <ele>409.18</ele>
        <time>2014-06-08T13:52:44Z</time>
      </trkpt>
      <trkpt lat="43.88357" lon="3.63607">
        <ele>410.62</ele>
        <time>2014-06-08T13:53:07Z</time>
      </trkpt>
      <trkpt lat="43.88373" lon="3.63585">
        <ele>416.87</ele>
        <time>2014-06-08T13:53:29Z</time>
      </trkpt>
      <trkpt lat="43.88372" lon="3.63562">
        <ele>418.31</ele>
        <time>2014-06-08T13:53:46Z</time>
      </trkpt>
      <trkpt lat="43.88367" lon="3.63528">
        <ele>420.23</ele>
        <time>2014-06-08T13:54:08Z</time>
      </trkpt>
      <trkpt lat="43.8836" lon="3.63499">
        <ele>421.68</ele>
        <time>2014-06-08T13:54:26Z</time>
      </trkpt>
      <trkpt lat="43.88342" lon="3.63466">
        <ele>421.68</ele>
        <time>2014-06-08T13:54:51Z</time>
      </trkpt>
      <trkpt lat="43.88331" lon="3.63419">
        <ele>423.12</ele>
        <time>2014-06-08T13:55:13Z</time>
      </trkpt>
      <trkpt lat="43.88334" lon="3.63389">
        <ele>423.12</ele>
        <time>2014-06-08T13:55:32Z</time>
      </trkpt>
      <trkpt lat="43.88346" lon="3.63355">
        <ele>426.48</ele>
        <time>2014-06-08T13:55:52Z</time>
      </trkpt>
      <trkpt lat="43.88353" lon="3.63314">
        <ele>424.08</ele>
        <time>2014-06-08T13:56:13Z</time>
      </trkpt>
      <trkpt lat="43.88328" lon="3.63302">
        <ele>417.83</ele>
        <time>2014-06-08T13:56:35Z</time>
      </trkpt>
      <trkpt lat="43.88317" lon="3.63288">
        <ele>415.43</ele>
        <time>2014-06-08T13:56:46Z</time>
      </trkpt>
      <trkpt lat="43.88347" lon="3.63269">
        <ele>415.91</ele>
        <time>2014-06-08T13:57:10Z</time>
      </trkpt>
      <trkpt lat="43.88366" lon="3.63246">
        <ele>417.83</ele>
        <time>2014-06-08T13:57:28Z</time>
      </trkpt>
      <trkpt lat="43.88367" lon="3.63246">
        <ele>416.39</ele>
        <time>2014-06-08T13:57:45Z</time>
      </trkpt>
      <trkpt lat="43.88368" lon="3.63257">
        <ele>416.39</ele>
        <time>2014-06-08T13:57:55Z</time>
      </trkpt>
      <trkpt lat="43.88393" lon="3.63237">
        <ele>414.47</ele>
        <time>2014-06-08T13:58:18Z</time>
      </trkpt>
      <trkpt lat="43.88412" lon="3.63228">
        <ele>412.06</ele>
        <time>2014-06-08T13:58:36Z</time>
      </trkpt>
      <trkpt lat="43.88425" lon="3.63236">
        <ele>410.14</ele>
        <time>2014-06-08T13:58:54Z</time>
      </trkpt>
      <trkpt lat="43.88443" lon="3.63244">
        <ele>407.74</ele>
        <time>2014-06-08T13:59:10Z</time>
      </trkpt>
      <trkpt lat="43.88447" lon="3.63245">
        <ele>407.74</ele>
        <time>2014-06-08T13:59:12Z</time>
      </trkpt>
      <trkpt lat="43.88469" lon="3.6325">
        <ele>407.26</ele>
        <time>2014-06-08T13:59:32Z</time>
      </trkpt>
      <trkpt lat="43.8848" lon="3.6326">
        <ele>405.33</ele>
        <time>2014-06-08T13:59:43Z</time>
      </trkpt>
      <trkpt lat="43.88499" lon="3.63267">
        <ele>406.29</ele>
        <time>2014-06-08T14:00:00Z</time>
      </trkpt>
      <trkpt lat="43.88512" lon="3.63278">
        <ele>404.37</ele>
        <time>2014-06-08T14:00:14Z</time>
      </trkpt>
      <trkpt lat="43.88515" lon="3.63279">
        <ele>403.89</ele>
        <time>2014-06-08T14:00:16Z</time>
      </trkpt>
      <trkpt lat="43.88525" lon="3.63286">
        <ele>402.93</ele>
        <time>2014-06-08T14:00:27Z</time>
      </trkpt>
      <trkpt lat="43.88528" lon="3.63289">
        <ele>402.93</ele>
        <time>2014-06-08T14:00:30Z</time>
      </trkpt>
      <trkpt lat="43.88531" lon="3.63293">
        <ele>402.93</ele>
        <time>2014-06-08T14:00:33Z</time>
      </trkpt>
      <trkpt lat="43.88544" lon="3.63297">
        <ele>402.45</ele>
        <time>2014-06-08T14:00:44Z</time>
      </trkpt>
      <trkpt lat="43.88546" lon="3.63297">
        <ele>402.93</ele>
        <time>2014-06-08T14:00:46Z</time>
      </trkpt>
      <trkpt lat="43.88558" lon="3.63306">
        <ele>401.49</ele>
        <time>2014-06-08T14:00:58Z</time>
      </trkpt>
      <trkpt lat="43.88562" lon="3.63321">
        <ele>398.12</ele>
        <time>2014-06-08T14:01:12Z</time>
      </trkpt>
      <trkpt lat="43.88572" lon="3.63335">
        <ele>394.28</ele>
        <time>2014-06-08T14:01:28Z</time>
      </trkpt>
      <trkpt lat="43.88594" lon="3.63348">
        <ele>388.99</ele>
        <time>2014-06-08T14:01:49Z</time>
      </trkpt>
      <trkpt lat="43.88616" lon="3.63359">
        <ele>384.18</ele>
        <time>2014-06-08T14:02:09Z</time>
      </trkpt>
      <trkpt lat="43.88634" lon="3.63367">
        <ele>380.82</ele>
        <time>2014-06-08T14:02:26Z</time>
      </trkpt>
      <trkpt lat="43.88644" lon="3.63376">
        <ele>379.38</ele>
        <time>2014-06-08T14:02:36Z</time>
      </trkpt>
      <trkpt lat="43.88663" lon="3.63372">
        <ele>376.97</ele>
        <time>2014-06-08T14:02:53Z</time>
      </trkpt>
      <trkpt lat="43.88666" lon="3.63387">
        <ele>376.97</ele>
        <time>2014-06-08T14:03:07Z</time>
      </trkpt>
      <trkpt lat="43.8867" lon="3.63408">
        <ele>376.01</ele>
        <time>2014-06-08T14:03:23Z</time>
      </trkpt>
      <trkpt lat="43.88684" lon="3.63418">
        <ele>374.09</ele>
        <time>2014-06-08T14:03:39Z</time>
      </trkpt>
      <trkpt lat="43.88698" lon="3.63432">
        <ele>373.61</ele>
        <time>2014-06-08T14:03:55Z</time>
      </trkpt>
      <trkpt lat="43.88699" lon="3.63456">
        <ele>373.61</ele>
        <time>2014-06-08T14:04:12Z</time>
      </trkpt>
      <trkpt lat="43.88713" lon="3.63467">
        <ele>372.17</ele>
        <time>2014-06-08T14:04:27Z</time>
      </trkpt>
      <trkpt lat="43.88725" lon="3.63482">
        <ele>370.73</ele>
        <time>2014-06-08T14:04:43Z</time>
      </trkpt>
      <trkpt lat="43.88741" lon="3.63492">
        <ele>366.4</ele>
        <time>2014-06-08T14:05:01Z</time>
      </trkpt>
      <trkpt lat="43.88752" lon="3.63481">
        <ele>367.36</ele>
        <time>2014-06-08T14:05:19Z</time>
      </trkpt>
      <trkpt lat="43.88755" lon="3.63468">
        <ele>366.88</ele>
        <time>2014-06-08T14:05:37Z</time>
      </trkpt>
      <trkpt lat="43.88756" lon="3.63437">
        <ele>364.96</ele>
        <time>2014-06-08T14:05:59Z</time>
      </trkpt>
      <trkpt lat="43.88757" lon="3.63414">
        <ele>362.55</ele>
        <time>2014-06-08T14:06:21Z</time>
      </trkpt>
      <trkpt lat="43.88761" lon="3.63385">
        <ele>358.23</ele>
        <time>2014-06-08T14:06:40Z</time>
      </trkpt>
      <trkpt lat="43.88763" lon="3.63358">
        <ele>352.46</ele>
        <time>2014-06-08T14:07:01Z</time>
      </trkpt>
      <trkpt lat="43.88766" lon="3.63335">
        <ele>350.06</ele>
        <time>2014-06-08T14:07:22Z</time>
      </trkpt>
      <trkpt lat="43.88772" lon="3.63323">
        <ele>350.06</ele>
        <time>2014-06-08T14:07:40Z</time>
      </trkpt>
      <trkpt lat="43.88787" lon="3.63302">
        <ele>345.73</ele>
        <time>2014-06-08T14:08:00Z</time>
      </trkpt>
      <trkpt lat="43.88789" lon="3.63299">
        <ele>344.29</ele>
        <time>2014-06-08T14:08:18Z</time>
      </trkpt>
      <trkpt lat="43.88793" lon="3.63292">
        <ele>340.44</ele>
        <time>2014-06-08T14:08:38Z</time>
      </trkpt>
      <trkpt lat="43.88798" lon="3.63284">
        <ele>335.64</ele>
        <time>2014-06-08T14:08:53Z</time>
      </trkpt>
      <trkpt lat="43.88808" lon="3.63279">
        <ele>331.31</ele>
        <time>2014-06-08T14:09:09Z</time>
      </trkpt>
      <trkpt lat="43.88818" lon="3.63268">
        <ele>325.06</ele>
        <time>2014-06-08T14:09:29Z</time>
      </trkpt>
      <trkpt lat="43.88818" lon="3.6326">
        <ele>323.14</ele>
        <time>2014-06-08T14:09:46Z</time>
      </trkpt>
      <trkpt lat="43.88822" lon="3.63253">
        <ele>319.78</ele>
        <time>2014-06-08T14:10:01Z</time>
      </trkpt>
      <trkpt lat="43.88826" lon="3.63233">
        <ele>314.97</ele>
        <time>2014-06-08T14:10:17Z</time>
      </trkpt>
      <trkpt lat="43.88829" lon="3.63219">
        <ele>314.49</ele>
        <time>2014-06-08T14:10:33Z</time>
      </trkpt>
      <trkpt lat="43.8883" lon="3.63207">
        <ele>312.57</ele>
        <time>2014-06-08T14:10:40Z</time>
      </trkpt>
      <trkpt lat="43.88838" lon="3.63176">
        <ele>311.6</ele>
        <time>2014-06-08T14:11:00Z</time>
      </trkpt>
      <trkpt lat="43.88843" lon="3.6315">
        <ele>310.16</ele>
        <time>2014-06-08T14:11:21Z</time>
      </trkpt>
      <trkpt lat="43.8885" lon="3.63141">
        <ele>308.24</ele>
        <time>2014-06-08T14:11:42Z</time>
      </trkpt>
      <trkpt lat="43.88853" lon="3.63132">
        <ele>307.76</ele>
        <time>2014-06-08T14:11:56Z</time>
      </trkpt>
      <trkpt lat="43.8886" lon="3.63111">
        <ele>302.47</ele>
        <time>2014-06-08T14:12:13Z</time>
      </trkpt>
      <trkpt lat="43.88862" lon="3.63105">
        <ele>301.03</ele>
        <time>2014-06-08T14:12:19Z</time>
      </trkpt>
      <trkpt lat="43.88868" lon="3.63094">
        <ele>298.15</ele>
        <time>2014-06-08T14:12:32Z</time>
      </trkpt>
      <trkpt lat="43.88874" lon="3.6308">
        <ele>295.26</ele>
        <time>2014-06-08T14:12:46Z</time>
      </trkpt>
      <trkpt lat="43.88876" lon="3.63073">
        <ele>292.86</ele>
        <time>2014-06-08T14:12:58Z</time>
      </trkpt>
      <trkpt lat="43.88882" lon="3.63062">
        <ele>289.97</ele>
        <time>2014-06-08T14:13:17Z</time>
      </trkpt>
      <trkpt lat="43.8889" lon="3.63052">
        <ele>287.09</ele>
        <time>2014-06-08T14:13:31Z</time>
      </trkpt>
      <trkpt lat="43.88901" lon="3.6304">
        <ele>283.25</ele>
        <time>2014-06-08T14:13:49Z</time>
      </trkpt>
      <trkpt lat="43.88913" lon="3.63028">
        <ele>280.84</ele>
        <time>2014-06-08T14:14:01Z</time>
      </trkpt>
      <trkpt lat="43.88929" lon="3.63011">
        <ele>278.92</ele>
        <time>2014-06-08T14:14:21Z</time>
      </trkpt>
      <trkpt lat="43.88947" lon="3.62991">
        <ele>277.48</ele>
        <time>2014-06-08T14:14:40Z</time>
      </trkpt>
      <trkpt lat="43.88964" lon="3.62971">
        <ele>277.48</ele>
        <time>2014-06-08T14:15:00Z</time>
      </trkpt>
      <trkpt lat="43.88983" lon="3.62955">
        <ele>274.59</ele>
        <time>2014-06-08T14:15:21Z</time>
      </trkpt>
      <trkpt lat="43.88998" lon="3.6294">
        <ele>270.75</ele>
        <time>2014-06-08T14:15:37Z</time>
      </trkpt>
      <trkpt lat="43.89016" lon="3.62929">
        <ele>270.75</ele>
        <time>2014-06-08T14:15:55Z</time>
      </trkpt>
      <trkpt lat="43.89035" lon="3.62914">
        <ele>267.38</ele>
        <time>2014-06-08T14:16:12Z</time>
      </trkpt>
      <trkpt lat="43.89052" lon="3.62895">
        <ele>262.1</ele>
        <time>2014-06-08T14:16:32Z</time>
      </trkpt>
      <trkpt lat="43.89061" lon="3.62889">
        <ele>259.69</ele>
        <time>2014-06-08T14:16:47Z</time>
      </trkpt>
      <trkpt lat="43.89063" lon="3.62891">
        <ele>261.14</ele>
        <time>2014-06-08T14:17:07Z</time>
      </trkpt>
      <trkpt lat="43.89063" lon="3.62888">
        <ele>259.21</ele>
        <time>2014-06-08T14:17:38Z</time>
      </trkpt>
      <trkpt lat="43.89068" lon="3.62878">
        <ele>257.77</ele>
        <time>2014-06-08T14:17:53Z</time>
      </trkpt>
      <trkpt lat="43.89078" lon="3.62852">
        <ele>255.85</ele>
        <time>2014-06-08T14:18:13Z</time>
      </trkpt>
      <trkpt lat="43.89079" lon="3.62839">
        <ele>254.41</ele>
        <time>2014-06-08T14:18:28Z</time>
      </trkpt>
      <trkpt lat="43.89078" lon="3.62818">
        <ele>252.96</ele>
        <time>2014-06-08T14:18:45Z</time>
      </trkpt>
      <trkpt lat="43.89063" lon="3.62798">
        <ele>252.96</ele>
        <time>2014-06-08T14:19:04Z</time>
      </trkpt>
      <trkpt lat="43.89046" lon="3.62787">
        <ele>253.93</ele>
        <time>2014-06-08T14:19:24Z</time>
      </trkpt>
      <trkpt lat="43.89028" lon="3.6278">
        <ele>254.89</ele>
        <time>2014-06-08T14:19:43Z</time>
      </trkpt>
      <trkpt lat="43.89019" lon="3.62771">
        <ele>256.81</ele>
        <time>2014-06-08T14:20:04Z</time>
      </trkpt>
      <trkpt lat="43.8901" lon="3.62768">
        <ele>266.9</ele>
        <time>2014-06-08T14:20:24Z</time>
      </trkpt>
      <trkpt lat="43.89" lon="3.62768">
        <ele>271.71</ele>
        <time>2014-06-08T14:20:42Z</time>
      </trkpt>
      <trkpt lat="43.88989" lon="3.62759">
        <ele>269.79</ele>
        <time>2014-06-08T14:21:01Z</time>
      </trkpt>
      <trkpt lat="43.88982" lon="3.62748">
        <ele>264.98</ele>
        <time>2014-06-08T14:21:19Z</time>
      </trkpt>
      <trkpt lat="43.88991" lon="3.62746">
        <ele>260.65</ele>
        <time>2014-06-08T14:21:42Z</time>
      </trkpt>
      <trkpt lat="43.88992" lon="3.62737">
        <ele>255.37</ele>
        <time>2014-06-08T14:22:01Z</time>
      </trkpt>
      <trkpt lat="43.88993" lon="3.6273">
        <ele>249.12</ele>
        <time>2014-06-08T14:22:19Z</time>
      </trkpt>
      <trkpt lat="43.88994" lon="3.62718">
        <ele>247.2</ele>
        <time>2014-06-08T14:22:36Z</time>
      </trkpt>
      <trkpt lat="43.88989" lon="3.62709">
        <ele>241.43</ele>
        <time>2014-06-08T14:22:57Z</time>
      </trkpt>
      <trkpt lat="43.88988" lon="3.62697">
        <ele>237.1</ele>
        <time>2014-06-08T14:23:19Z</time>
      </trkpt>
      <trkpt lat="43.88995" lon="3.62695">
        <ele>230.37</ele>
        <time>2014-06-08T14:23:39Z</time>
      </trkpt>
      <trkpt lat="43.88997" lon="3.62683">
        <ele>227.97</ele>
        <time>2014-06-08T14:23:57Z</time>
      </trkpt>
      <trkpt lat="43.88997" lon="3.62682">
        <ele>222.2</ele>
        <time>2014-06-08T14:24:14Z</time>
      </trkpt>
      <trkpt lat="43.89001" lon="3.62673">
        <ele>217.4</ele>
        <time>2014-06-08T14:24:35Z</time>
      </trkpt>
      <trkpt lat="43.89005" lon="3.62666">
        <ele>213.07</ele>
        <time>2014-06-08T14:24:52Z</time>
      </trkpt>
      <trkpt lat="43.89019" lon="3.62659">
        <ele>213.07</ele>
        <time>2014-06-08T14:25:12Z</time>
      </trkpt>
      <trkpt lat="43.8902" lon="3.62655">
        <ele>209.7</ele>
        <time>2014-06-08T14:25:36Z</time>
      </trkpt>
      <trkpt lat="43.89019" lon="3.62654">
        <ele>208.26</ele>
        <time>2014-06-08T14:26:01Z</time>
      </trkpt>
      <trkpt lat="43.8902" lon="3.62655">
        <ele>213.55</ele>
        <time>2014-06-08T14:26:37Z</time>
      </trkpt>
      <trkpt lat="43.8902" lon="3.62649">
        <ele>214.99</ele>
        <time>2014-06-08T14:27:05Z</time>
      </trkpt>
      <trkpt lat="43.89019" lon="3.62642">
        <ele>213.07</ele>
        <time>2014-06-08T14:27:27Z</time>
      </trkpt>
      <trkpt lat="43.8901" lon="3.62638">
        <ele>208.26</ele>
        <time>2014-06-08T14:27:44Z</time>
      </trkpt>
      <trkpt lat="43.88998" lon="3.62643">
        <ele>196.73</ele>
        <time>2014-06-08T14:28:04Z</time>
      </trkpt>
      <trkpt lat="43.88999" lon="3.62653">
        <ele>181.83</ele>
        <time>2014-06-08T14:28:30Z</time>
      </trkpt>
      <trkpt lat="43.89001" lon="3.62651">
        <ele>170.29</ele>
        <time>2014-06-08T14:29:00Z</time>
      </trkpt>
      <trkpt lat="43.89012" lon="3.62645">
        <ele>180.38</ele>
        <time>2014-06-08T14:29:23Z</time>
      </trkpt>
      <trkpt lat="43.89023" lon="3.62637">
        <ele>184.71</ele>
        <time>2014-06-08T14:29:43Z</time>
      </trkpt>
      <trkpt lat="43.89026" lon="3.62631">
        <ele>193.36</ele>
        <time>2014-06-08T14:30:09Z</time>
      </trkpt>
      <trkpt lat="43.89028" lon="3.62628">
        <ele>196.73</ele>
        <time>2014-06-08T14:30:26Z</time>
      </trkpt>
      <trkpt lat="43.89027" lon="3.6263">
        <ele>203.94</ele>
        <time>2014-06-08T14:30:53Z</time>
      </trkpt>
      <trkpt lat="43.89025" lon="3.62635">
        <ele>202.49</ele>
        <time>2014-06-08T14:31:21Z</time>
      </trkpt>
      <trkpt lat="43.89026" lon="3.62637">
        <ele>210.67</ele>
        <time>2014-06-08T14:31:47Z</time>
      </trkpt>
      <trkpt lat="43.89036" lon="3.6263">
        <ele>206.34</ele>
        <time>2014-06-08T14:31:58Z</time>
      </trkpt>
      <trkpt lat="43.89041" lon="3.62629">
        <ele>205.86</ele>
        <time>2014-06-08T14:32:02Z</time>
      </trkpt>
      <trkpt lat="43.89046" lon="3.62609">
        <ele>204.9</ele>
        <time>2014-06-08T14:32:16Z</time>
      </trkpt>
      <trkpt lat="43.89049" lon="3.62581">
        <ele>203.46</ele>
        <time>2014-06-08T14:32:35Z</time>
      </trkpt>
      <trkpt lat="43.89043" lon="3.62544">
        <ele>202.98</ele>
        <time>2014-06-08T14:32:56Z</time>
      </trkpt>
      <trkpt lat="43.8903" lon="3.62523">
        <ele>202.49</ele>
        <time>2014-06-08T14:33:14Z</time>
      </trkpt>
      <trkpt lat="43.89021" lon="3.62519">
        <ele>204.9</ele>
        <time>2014-06-08T14:33:33Z</time>
      </trkpt>
      <trkpt lat="43.8902" lon="3.62518">
        <ele>205.86</ele>
        <time>2014-06-08T14:33:58Z</time>
      </trkpt>
      <trkpt lat="43.89007" lon="3.6251">
        <ele>204.9</ele>
        <time>2014-06-08T14:34:15Z</time>
      </trkpt>
      <trkpt lat="43.88985" lon="3.62494">
        <ele>200.09</ele>
        <time>2014-06-08T14:34:35Z</time>
      </trkpt>
      <trkpt lat="43.8896" lon="3.62479">
        <ele>197.21</ele>
        <time>2014-06-08T14:34:57Z</time>
      </trkpt>
      <trkpt lat="43.88941" lon="3.62473">
        <ele>196.25</ele>
        <time>2014-06-08T14:35:17Z</time>
      </trkpt>
      <trkpt lat="43.88931" lon="3.62472">
        <ele>195.77</ele>
        <time>2014-06-08T14:35:37Z</time>
      </trkpt>
      <trkpt lat="43.88924" lon="3.62503">
        <ele>191.92</ele>
        <time>2014-06-08T14:35:55Z</time>
      </trkpt>
      <trkpt lat="43.88923" lon="3.62526">
        <ele>190</ele>
        <time>2014-06-08T14:36:12Z</time>
      </trkpt>
      <trkpt lat="43.88917" lon="3.62545">
        <ele>193.36</ele>
        <time>2014-06-08T14:36:33Z</time>
      </trkpt>
      <trkpt lat="43.88911" lon="3.62555">
        <ele>195.77</ele>
        <time>2014-06-08T14:36:58Z</time>
      </trkpt>
      <trkpt lat="43.88921" lon="3.62534">
        <ele>196.73</ele>
        <time>2014-06-08T14:37:26Z</time>
      </trkpt>
      <trkpt lat="43.88913" lon="3.62537">
        <ele>203.46</ele>
        <time>2014-06-08T14:37:52Z</time>
      </trkpt>
      <trkpt lat="43.88917" lon="3.62552">
        <ele>207.3</ele>
        <time>2014-06-08T14:38:16Z</time>
      </trkpt>
      <trkpt lat="43.88919" lon="3.62542">
        <ele>209.22</ele>
        <time>2014-06-08T14:38:34Z</time>
      </trkpt>
      <trkpt lat="43.88915" lon="3.6255">
        <ele>206.82</ele>
        <time>2014-06-08T14:38:52Z</time>
      </trkpt>
      <trkpt lat="43.88921" lon="3.62533">
        <ele>204.42</ele>
        <time>2014-06-08T14:39:10Z</time>
      </trkpt>
      <trkpt lat="43.88924" lon="3.62502">
        <ele>205.86</ele>
        <time>2014-06-08T14:39:30Z</time>
      </trkpt>
      <trkpt lat="43.88926" lon="3.62481">
        <ele>208.74</ele>
        <time>2014-06-08T14:39:49Z</time>
      </trkpt>
      <trkpt lat="43.88935" lon="3.62471">
        <ele>212.59</ele>
        <time>2014-06-08T14:40:17Z</time>
      </trkpt>
      <trkpt lat="43.88937" lon="3.62467">
        <ele>211.15</ele>
        <time>2014-06-08T14:40:41Z</time>
      </trkpt>
      <trkpt lat="43.88937" lon="3.62471">
        <ele>211.15</ele>
        <time>2014-06-08T14:41:03Z</time>
      </trkpt>
      <trkpt lat="43.88918" lon="3.62458">
        <ele>204.9</ele>
        <time>2014-06-08T14:41:20Z</time>
      </trkpt>
      <trkpt lat="43.88916" lon="3.6246">
        <ele>203.46</ele>
        <time>2014-06-08T14:41:41Z</time>
      </trkpt>
      <trkpt lat="43.88912" lon="3.62463">
        <ele>202.49</ele>
        <time>2014-06-08T14:42:05Z</time>
      </trkpt>
      <trkpt lat="43.88912" lon="3.62463">
        <ele>204.42</ele>
        <time>2014-06-08T14:42:22Z</time>
      </trkpt>
      <trkpt lat="43.88911" lon="3.62462">
        <ele>209.7</ele>
        <time>2014-06-08T14:42:51Z</time>
      </trkpt>
      <trkpt lat="43.88909" lon="3.62462">
        <ele>207.78</ele>
        <time>2014-06-08T14:43:18Z</time>
      </trkpt>
      <trkpt lat="43.88908" lon="3.6246">
        <ele>208.26</ele>
        <time>2014-06-08T14:43:44Z</time>
      </trkpt>
      <trkpt lat="43.88911" lon="3.62464">
        <ele>201.05</ele>
        <time>2014-06-08T14:44:14Z</time>
      </trkpt>
      <trkpt lat="43.8891" lon="3.62465">
        <ele>198.17</ele>
        <time>2014-06-08T14:44:43Z</time>
      </trkpt>
      <trkpt lat="43.88917" lon="3.62461">
        <ele>193.36</ele>
        <time>2014-06-08T14:45:15Z</time>
      </trkpt>
      <trkpt lat="43.88911" lon="3.62459">
        <ele>196.73</ele>
        <time>2014-06-08T14:45:52Z</time>
      </trkpt>
      <trkpt lat="43.8891" lon="3.62466">
        <ele>192.88</ele>
        <time>2014-06-08T14:46:17Z</time>
      </trkpt>
      <trkpt lat="43.8891" lon="3.62463">
        <ele>191.92</ele>
        <time>2014-06-08T14:46:48Z</time>
      </trkpt>
      <trkpt lat="43.8891" lon="3.62446">
        <ele>194.32</ele>
        <time>2014-06-08T14:47:18Z</time>
      </trkpt>
      <trkpt lat="43.8891" lon="3.62459">
        <ele>195.77</ele>
        <time>2014-06-08T14:47:51Z</time>
      </trkpt>
      <trkpt lat="43.88907" lon="3.62466">
        <ele>195.28</ele>
        <time>2014-06-08T14:48:25Z</time>
      </trkpt>
      <trkpt lat="43.88911" lon="3.62459">
        <ele>200.09</ele>
        <time>2014-06-08T14:48:55Z</time>
      </trkpt>
      <trkpt lat="43.8892" lon="3.62465">
        <ele>199.13</ele>
        <time>2014-06-08T14:49:15Z</time>
      </trkpt>
      <trkpt lat="43.88922" lon="3.62463">
        <ele>196.73</ele>
        <time>2014-06-08T14:49:50Z</time>
      </trkpt>
      <trkpt lat="43.88919" lon="3.62461">
        <ele>198.65</ele>
        <time>2014-06-08T14:50:12Z</time>
      </trkpt>
      <trkpt lat="43.88914" lon="3.62458">
        <ele>202.01</ele>
        <time>2014-06-08T14:50:31Z</time>
      </trkpt>
      <trkpt lat="43.88908" lon="3.62454">
        <ele>202.49</ele>
        <time>2014-06-08T14:50:37Z</time>
      </trkpt>
      <trkpt lat="43.88905" lon="3.62449">
        <ele>204.9</ele>
        <time>2014-06-08T14:50:39Z</time>
      </trkpt>
      <trkpt lat="43.88891" lon="3.62448">
        <ele>208.74</ele>
        <time>2014-06-08T14:50:57Z</time>
      </trkpt>
      <trkpt lat="43.8889" lon="3.62445">
        <ele>211.63</ele>
        <time>2014-06-08T14:51:16Z</time>
      </trkpt>
    </trkseg>
  </trk>
</gpx>